C2007 PHJR-KNTD
Flight info
| Callsign | C2007 |
|---|---|
| Flight time | N/A |
| Altitude | 27000 |
| Route | NGF LEEIA BEFIN HALTU REALL |
| Aircraft | C30J/M-SGHIRTUY/L |
Departure
| Time | 2026-05-07 12:56 |
|---|---|
| Airport | Kalaeloa Airport (PHJR) |
Arrival
| Time | N/A |
|---|---|
| Airport | Point Mugu Naval Air Station (Naval Base Ventura Co) (KNTD) |
| Time | Latitude | Longitude | Altitude | Speed | Heading |
|---|---|---|---|---|---|
| 2026-05-07 12:41 | 21.30062 | -158.07188 | 37 ft | 0 kts | 56° |
| 2026-05-07 12:48 | 21.30063 | -158.07188 | 37 ft | 0 kts | 56° |
| 2026-05-07 12:49 | 21.30066 | -158.07181 | 36 ft | 3 kts | 55° |
| 2026-05-07 12:49 | 21.30086 | -158.07171 | 37 ft | 5 kts | 12° |
| 2026-05-07 12:49 | 21.30101 | -158.07168 | 34 ft | 0 kts | 1° |
| 2026-05-07 12:49 | 21.30115 | -158.07175 | 35 ft | 3 kts | 323° |
| 2026-05-07 12:50 | 21.30130 | -158.07186 | 37 ft | 0 kts | 327° |
| 2026-05-07 12:50 | 21.30188 | -158.07227 | 37 ft | 15 kts | 326° |
| 2026-05-07 12:50 | 21.30274 | -158.07283 | 37 ft | 16 kts | 324° |
| 2026-05-07 12:51 | 21.30372 | -158.07348 | 36 ft | 16 kts | 337° |
| 2026-05-07 12:51 | 21.30459 | -158.07394 | 36 ft | 14 kts | 335° |
| 2026-05-07 12:51 | 21.30515 | -158.07449 | 34 ft | 10 kts | 276° |
| 2026-05-07 12:51 | 21.30496 | -158.07503 | 35 ft | 10 kts | 234° |
| 2026-05-07 12:52 | 21.30429 | -158.07604 | 35 ft | 20 kts | 237° |
| 2026-05-07 12:52 | 21.30344 | -158.07734 | 37 ft | 17 kts | 234° |
| 2026-05-07 12:52 | 21.30336 | -158.07746 | 37 ft | 0 kts | 235° |
| 2026-05-07 12:52 | 21.30284 | -158.07824 | 37 ft | 20 kts | 233° |
| 2026-05-07 12:53 | 21.30226 | -158.07912 | 35 ft | 13 kts | 236° |
| 2026-05-07 12:53 | 21.30167 | -158.08004 | 36 ft | 14 kts | 234° |
| 2026-05-07 12:53 | 21.30117 | -158.08078 | 37 ft | 9 kts | 232° |
| 2026-05-07 12:53 | 21.30072 | -158.08090 | 37 ft | 1 kts | 131° |
| 2026-05-07 12:54 | 21.30057 | -158.08077 | 36 ft | 2 kts | 146° |
| 2026-05-07 12:54 | 21.29999 | -158.08034 | 37 ft | 14 kts | 144° |
| 2026-05-07 12:54 | 21.29979 | -158.07964 | 38 ft | 7 kts | 68° |
| 2026-05-07 12:54 | 21.30017 | -158.07909 | 37 ft | 39 kts | 54° |
| 2026-05-07 12:55 | 21.30389 | -158.07350 | 59 ft | 133 kts | 53° |
| 2026-05-07 12:55 | 21.30980 | -158.06460 | 290 ft | 151 kts | 57° |
| 2026-05-07 12:55 | 21.31509 | -158.05420 | 294 ft | 165 kts | 63° |
| 2026-05-07 12:55 | 21.31996 | -158.04274 | 398 ft | 172 kts | 65° |
| 2026-05-07 12:56 | 21.32497 | -158.03075 | 553 ft | 179 kts | 65° |
| 2026-05-07 12:56 | 21.33028 | -158.01846 | 753 ft | 184 kts | 63° |
| 2026-05-07 12:56 | 21.33575 | -158.00624 | 1058 ft | 179 kts | 62° |
| 2026-05-07 12:56 | 21.34105 | -157.99469 | 1447 ft | 172 kts | 63° |
| 2026-05-07 12:57 | 21.34644 | -157.98317 | 1643 ft | 173 kts | 62° |
| 2026-05-07 12:57 | 21.35185 | -157.97173 | 1873 ft | 173 kts | 61° |
| 2026-05-07 12:57 | 21.35727 | -157.96038 | 2242 ft | 168 kts | 61° |
| 2026-05-07 12:57 | 21.36258 | -157.94932 | 2497 ft | 168 kts | 61° |
| 2026-05-07 12:58 | 21.36798 | -157.93810 | 2712 ft | 171 kts | 60° |
| 2026-05-07 12:58 | 21.37333 | -157.92700 | 3062 ft | 161 kts | 60° |
| 2026-05-07 12:58 | 21.37873 | -157.91590 | 3620 ft | 185 kts | 61° |
| 2026-05-07 12:58 | 21.38511 | -157.90283 | 4161 ft | 209 kts | 62° |
| 2026-05-07 12:59 | 21.39213 | -157.88837 | 4703 ft | 227 kts | 62° |
| 2026-05-07 12:59 | 21.39955 | -157.87305 | 5208 ft | 233 kts | 62° |
| 2026-05-07 12:59 | 21.40702 | -157.85764 | 5690 ft | 233 kts | 63° |
| 2026-05-07 12:59 | 21.41460 | -157.84201 | 6200 ft | 237 kts | 63° |
| 2026-05-07 13:00 | 21.42225 | -157.82634 | 6669 ft | 234 kts | 62° |
| 2026-05-07 13:00 | 21.42936 | -157.81161 | 7117 ft | 212 kts | 63° |
| 2026-05-07 13:00 | 21.43604 | -157.79777 | 7581 ft | 207 kts | 63° |
| 2026-05-07 13:00 | 21.44270 | -157.78401 | 8065 ft | 209 kts | 63° |
| 2026-05-07 13:01 | 21.44950 | -157.77002 | 8579 ft | 214 kts | 63° |
| 2026-05-07 13:01 | 21.45646 | -157.75564 | 9085 ft | 218 kts | 63° |
| 2026-05-07 13:01 | 21.46340 | -157.74122 | 9596 ft | 217 kts | 63° |
| 2026-05-07 13:01 | 21.47036 | -157.72668 | 10090 ft | 221 kts | 63° |
| 2026-05-07 13:02 | 21.47749 | -157.71185 | 10561 ft | 225 kts | 63° |
| 2026-05-07 13:02 | 21.48465 | -157.69695 | 11029 ft | 225 kts | 62° |
| 2026-05-07 13:02 | 21.49191 | -157.68186 | 11511 ft | 230 kts | 62° |
| 2026-05-07 13:02 | 21.49929 | -157.66655 | 12004 ft | 231 kts | 62° |
| 2026-05-07 13:03 | 21.50667 | -157.65121 | 12498 ft | 232 kts | 61° |
| 2026-05-07 13:03 | 21.51406 | -157.63586 | 12997 ft | 236 kts | 61° |
| 2026-05-07 13:03 | 21.52158 | -157.62021 | 13505 ft | 236 kts | 61° |
| 2026-05-07 13:03 | 21.52916 | -157.60443 | 14004 ft | 239 kts | 61° |
| 2026-05-07 13:04 | 21.53680 | -157.58851 | 14463 ft | 240 kts | 61° |
| 2026-05-07 13:04 | 21.54433 | -157.57282 | 14922 ft | 232 kts | 61° |
| 2026-05-07 13:04 | 21.55160 | -157.55762 | 15378 ft | 227 kts | 61° |
| 2026-05-07 13:04 | 21.55884 | -157.54255 | 15858 ft | 228 kts | 62° |
| 2026-05-07 13:05 | 21.56616 | -157.52731 | 16346 ft | 232 kts | 61° |
| 2026-05-07 13:05 | 21.57363 | -157.51175 | 16846 ft | 236 kts | 61° |
| 2026-05-07 13:05 | 21.58114 | -157.49611 | 17347 ft | 235 kts | 62° |
| 2026-05-07 13:05 | 21.58864 | -157.48047 | 17854 ft | 236 kts | 62° |
| 2026-05-07 13:06 | 21.59618 | -157.46473 | 18372 ft | 237 kts | 62° |
| 2026-05-07 13:06 | 21.60372 | -157.44896 | 18826 ft | 238 kts | 62° |
| 2026-05-07 13:06 | 21.61131 | -157.43310 | 19286 ft | 240 kts | 63° |
| 2026-05-07 13:06 | 21.61897 | -157.41708 | 19749 ft | 241 kts | 63° |
| 2026-05-07 13:07 | 21.62665 | -157.40102 | 20218 ft | 242 kts | 62° |
| 2026-05-07 13:07 | 21.63436 | -157.38488 | 20691 ft | 243 kts | 63° |
| 2026-05-07 13:07 | 21.64207 | -157.36876 | 21181 ft | 242 kts | 63° |
| 2026-05-07 13:07 | 21.64981 | -157.35256 | 21559 ft | 248 kts | 63° |
| 2026-05-07 13:08 | 21.65779 | -157.33585 | 21864 ft | 245 kts | 63° |
| 2026-05-07 13:08 | 21.66549 | -157.31972 | 22377 ft | 246 kts | 63° |
| 2026-05-07 13:08 | 21.67343 | -157.30309 | 22639 ft | 254 kts | 63° |
| 2026-05-07 13:08 | 21.68162 | -157.28591 | 22887 ft | 262 kts | 63° |
| 2026-05-07 13:09 | 21.69004 | -157.26828 | 23142 ft | 268 kts | 63° |
| 2026-05-07 13:09 | 21.69863 | -157.25026 | 23392 ft | 273 kts | 63° |
| 2026-05-07 13:09 | 21.70734 | -157.23200 | 23634 ft | 276 kts | 63° |
| 2026-05-07 13:09 | 21.71611 | -157.21359 | 23841 ft | 276 kts | 63° |
| 2026-05-07 13:10 | 21.72485 | -157.19521 | 24044 ft | 276 kts | 63° |
| 2026-05-07 13:10 | 21.73350 | -157.17704 | 24246 ft | 277 kts | 63° |
| 2026-05-07 13:10 | 21.74227 | -157.15861 | 24453 ft | 277 kts | 63° |
| 2026-05-07 13:10 | 21.75110 | -157.14005 | 24673 ft | 279 kts | 63° |
| 2026-05-07 13:11 | 21.75996 | -157.12141 | 24882 ft | 280 kts | 63° |
| 2026-05-07 13:11 | 21.76884 | -157.10271 | 25092 ft | 281 kts | 63° |
| 2026-05-07 13:11 | 21.77776 | -157.08394 | 25312 ft | 281 kts | 63° |
| 2026-05-07 13:11 | 21.78667 | -157.06518 | 25511 ft | 282 kts | 63° |
| 2026-05-07 13:12 | 21.79561 | -157.04634 | 25735 ft | 283 kts | 63° |
| 2026-05-07 13:12 | 21.80459 | -157.02744 | 25954 ft | 284 kts | 63° |
| 2026-05-07 13:12 | 21.81359 | -157.00845 | 26171 ft | 285 kts | 63° |
| 2026-05-07 13:12 | 21.82262 | -156.98940 | 26390 ft | 286 kts | 63° |
| 2026-05-07 13:13 | 21.83167 | -156.97031 | 26617 ft | 286 kts | 63° |
| 2026-05-07 13:13 | 21.84073 | -156.95119 | 26841 ft | 287 kts | 63° |
| 2026-05-07 13:13 | 21.84979 | -156.93207 | 27029 ft | 289 kts | 63° |
| 2026-05-07 13:13 | 21.85898 | -156.91265 | 27084 ft | 294 kts | 63° |
| 2026-05-07 13:14 | 21.86829 | -156.89297 | 27093 ft | 296 kts | 63° |
| 2026-05-07 13:14 | 21.87764 | -156.87322 | 27102 ft | 295 kts | 63° |
| 2026-05-07 13:14 | 21.88693 | -156.85357 | 27098 ft | 293 kts | 63° |
| 2026-05-07 13:14 | 21.89615 | -156.83406 | 27100 ft | 292 kts | 63° |
| 2026-05-07 13:15 | 21.90549 | -156.81429 | 27108 ft | 300 kts | 63° |
| 2026-05-07 13:15 | 21.91505 | -156.79406 | 27107 ft | 306 kts | 63° |
| 2026-05-07 13:15 | 21.92479 | -156.77342 | 27105 ft | 312 kts | 63° |
| 2026-05-07 13:15 | 21.93471 | -156.75241 | 27105 ft | 317 kts | 63° |
| 2026-05-07 13:16 | 21.94476 | -156.73110 | 27105 ft | 321 kts | 63° |
| 2026-05-07 13:16 | 21.95492 | -156.70955 | 27103 ft | 324 kts | 63° |
| 2026-05-07 13:16 | 21.96519 | -156.68776 | 27102 ft | 327 kts | 63° |
| 2026-05-07 13:16 | 21.97553 | -156.66582 | 27104 ft | 329 kts | 63° |
| 2026-05-07 13:17 | 21.98592 | -156.64374 | 27098 ft | 331 kts | 63° |
| 2026-05-07 13:17 | 21.99638 | -156.62154 | 27103 ft | 333 kts | 63° |
| 2026-05-07 13:17 | 22.00686 | -156.59927 | 27102 ft | 334 kts | 63° |
| 2026-05-07 13:17 | 22.01739 | -156.57692 | 27101 ft | 335 kts | 63° |
| 2026-05-07 13:18 | 22.02825 | -156.55467 | 27104 ft | 336 kts | 62° |
| 2026-05-07 13:18 | 22.03913 | -156.53272 | 27101 ft | 337 kts | 62° |
| 2026-05-07 13:18 | 22.05018 | -156.51045 | 27101 ft | 337 kts | 62° |
| 2026-05-07 13:18 | 22.06127 | -156.48813 | 27101 ft | 338 kts | 62° |
| 2026-05-07 13:19 | 22.07239 | -156.46576 | 27100 ft | 338 kts | 62° |
| 2026-05-07 13:19 | 22.08349 | -156.44343 | 27102 ft | 338 kts | 62° |
| 2026-05-07 13:19 | 22.09462 | -156.42103 | 27100 ft | 338 kts | 62° |
| 2026-05-07 13:19 | 22.10575 | -156.39864 | 27103 ft | 339 kts | 62° |
| 2026-05-07 13:20 | 22.11686 | -156.37625 | 27099 ft | 339 kts | 62° |
| 2026-05-07 13:20 | 22.12800 | -156.35380 | 27101 ft | 340 kts | 62° |
| 2026-05-07 13:20 | 22.13917 | -156.33128 | 27099 ft | 340 kts | 62° |
| 2026-05-07 13:20 | 22.15032 | -156.30879 | 27104 ft | 340 kts | 62° |
| 2026-05-07 13:21 | 22.16147 | -156.28629 | 27101 ft | 340 kts | 62° |
| 2026-05-07 13:21 | 22.17263 | -156.26377 | 27103 ft | 340 kts | 62° |
| 2026-05-07 13:21 | 22.18378 | -156.24125 | 27099 ft | 341 kts | 62° |
| 2026-05-07 13:21 | 22.19493 | -156.21870 | 27102 ft | 340 kts | 62° |
| 2026-05-07 13:22 | 22.20609 | -156.19613 | 27100 ft | 341 kts | 62° |
| 2026-05-07 13:22 | 22.21724 | -156.17359 | 27101 ft | 341 kts | 62° |
| 2026-05-07 13:22 | 22.22825 | -156.15130 | 27101 ft | 341 kts | 62° |
| 2026-05-07 13:22 | 22.23940 | -156.12872 | 27100 ft | 341 kts | 62° |
| 2026-05-07 13:23 | 22.25054 | -156.10615 | 27103 ft | 341 kts | 62° |
| 2026-05-07 13:23 | 22.26171 | -156.08352 | 27101 ft | 341 kts | 62° |
| 2026-05-07 13:23 | 22.27287 | -156.06089 | 27104 ft | 341 kts | 62° |
| 2026-05-07 13:23 | 22.28402 | -156.03827 | 27104 ft | 341 kts | 62° |
| 2026-05-07 13:24 | 22.29517 | -156.01564 | 27102 ft | 341 kts | 62° |
| 2026-05-07 13:24 | 22.30633 | -155.99298 | 27101 ft | 341 kts | 62° |
| 2026-05-07 13:24 | 22.31752 | -155.97026 | 27101 ft | 341 kts | 62° |
| 2026-05-07 13:24 | 22.32865 | -155.94762 | 27100 ft | 342 kts | 62° |
| 2026-05-07 13:25 | 22.33979 | -155.92498 | 27102 ft | 341 kts | 62° |
| 2026-05-07 13:25 | 22.35093 | -155.90232 | 27103 ft | 342 kts | 62° |
| 2026-05-07 13:25 | 22.36206 | -155.87965 | 27106 ft | 341 kts | 62° |
| 2026-05-07 13:25 | 22.37320 | -155.85697 | 27103 ft | 342 kts | 62° |
| 2026-05-07 13:26 | 22.38432 | -155.83432 | 27105 ft | 342 kts | 62° |
| 2026-05-07 13:26 | 22.39532 | -155.81191 | 27099 ft | 342 kts | 62° |
| 2026-05-07 13:26 | 22.40645 | -155.78922 | 27103 ft | 342 kts | 62° |
| 2026-05-07 13:26 | 22.41759 | -155.76650 | 27099 ft | 342 kts | 62° |
| 2026-05-07 13:27 | 22.42872 | -155.74378 | 27103 ft | 342 kts | 62° |
| 2026-05-07 13:27 | 22.43985 | -155.72105 | 27102 ft | 342 kts | 62° |
| 2026-05-07 13:27 | 22.45097 | -155.69834 | 27104 ft | 342 kts | 62° |
| 2026-05-07 13:27 | 22.46208 | -155.67563 | 27105 ft | 342 kts | 62° |
| 2026-05-07 13:28 | 22.47320 | -155.65289 | 27104 ft | 342 kts | 62° |
| 2026-05-07 13:28 | 22.48433 | -155.63012 | 27104 ft | 342 kts | 62° |
| 2026-05-07 13:28 | 22.49543 | -155.60741 | 27103 ft | 342 kts | 62° |
| 2026-05-07 13:28 | 22.50656 | -155.58463 | 27104 ft | 342 kts | 62° |
| 2026-05-07 13:29 | 22.51767 | -155.56186 | 27104 ft | 342 kts | 62° |
| 2026-05-07 13:29 | 22.52879 | -155.53907 | 27104 ft | 342 kts | 62° |
| 2026-05-07 13:29 | 22.53990 | -155.51629 | 27106 ft | 342 kts | 62° |
| 2026-05-07 13:29 | 22.55099 | -155.49354 | 27108 ft | 342 kts | 62° |
| 2026-05-07 13:30 | 22.56209 | -155.47077 | 27104 ft | 342 kts | 62° |
| 2026-05-07 13:30 | 22.56944 | -155.45567 | 27107 ft | 342 kts | 62° |
| 2026-05-07 13:30 | 22.58055 | -155.43286 | 27106 ft | 342 kts | 62° |
| 2026-05-07 13:30 | 22.59165 | -155.41005 | 27107 ft | 342 kts | 62° |
| 2026-05-07 13:31 | 22.60633 | -155.37986 | 27104 ft | 343 kts | 62° |
| 2026-05-07 13:31 | 22.61740 | -155.35709 | 27102 ft | 342 kts | 62° |
| 2026-05-07 13:31 | 22.62850 | -155.33425 | 27106 ft | 342 kts | 62° |
| 2026-05-07 13:31 | 22.63958 | -155.31144 | 27107 ft | 342 kts | 62° |
| 2026-05-07 13:32 | 22.64707 | -155.29602 | 27101 ft | 342 kts | 62° |
| 2026-05-07 13:32 | 22.65814 | -155.27321 | 27104 ft | 342 kts | 62° |
| 2026-05-07 13:32 | 22.66920 | -155.25041 | 27103 ft | 342 kts | 62° |
| 2026-05-07 13:32 | 22.68012 | -155.22789 | 27104 ft | 342 kts | 62° |
| 2026-05-07 13:33 | 22.69132 | -155.20479 | 27107 ft | 342 kts | 62° |
| 2026-05-07 13:33 | 22.70222 | -155.18229 | 27107 ft | 342 kts | 62° |
| 2026-05-07 13:33 | 22.71324 | -155.15952 | 27106 ft | 342 kts | 62° |
| 2026-05-07 13:33 | 22.72431 | -155.13666 | 27106 ft | 342 kts | 62° |
| 2026-05-07 13:34 | 22.73535 | -155.11383 | 27105 ft | 342 kts | 62° |
| 2026-05-07 13:34 | 22.75742 | -155.06818 | 27104 ft | 342 kts | 62° |
| 2026-05-07 13:34 | 22.76845 | -155.04534 | 27104 ft | 342 kts | 62° |
| 2026-05-07 13:35 | 22.77946 | -155.02255 | 27106 ft | 342 kts | 62° |
| 2026-05-07 13:35 | 22.79049 | -154.99969 | 27106 ft | 342 kts | 62° |
| 2026-05-07 13:35 | 22.80151 | -154.97684 | 27108 ft | 342 kts | 62° |
| 2026-05-07 13:35 | 22.81255 | -154.95396 | 27105 ft | 342 kts | 62° |
| 2026-05-07 13:36 | 22.82354 | -154.93115 | 27108 ft | 342 kts | 62° |
| 2026-05-07 13:36 | 22.83454 | -154.90831 | 27107 ft | 342 kts | 62° |
| 2026-05-07 13:36 | 22.84555 | -154.88545 | 27106 ft | 342 kts | 62° |
| 2026-05-07 13:36 | 22.85654 | -154.86263 | 27106 ft | 341 kts | 62° |
| 2026-05-07 13:37 | 22.86752 | -154.83981 | 27106 ft | 341 kts | 62° |
| 2026-05-07 13:37 | 22.87848 | -154.81700 | 27107 ft | 341 kts | 62° |
| 2026-05-07 13:37 | 22.88931 | -154.79448 | 27106 ft | 341 kts | 62° |
| 2026-05-07 13:37 | 22.90030 | -154.77161 | 27106 ft | 342 kts | 62° |
| 2026-05-07 13:38 | 22.91127 | -154.74875 | 27108 ft | 342 kts | 62° |
| 2026-05-07 13:38 | 22.92225 | -154.72587 | 27109 ft | 342 kts | 62° |
| 2026-05-07 13:38 | 22.93322 | -154.70302 | 27109 ft | 342 kts | 62° |
| 2026-05-07 13:38 | 22.94420 | -154.68011 | 27109 ft | 342 kts | 62° |
| 2026-05-07 13:39 | 22.95517 | -154.65723 | 27108 ft | 342 kts | 62° |
| 2026-05-07 13:39 | 22.96614 | -154.63433 | 27106 ft | 342 kts | 62° |
| 2026-05-07 13:39 | 22.97711 | -154.61142 | 27106 ft | 342 kts | 62° |
| 2026-05-07 13:39 | 22.98809 | -154.58848 | 27107 ft | 342 kts | 62° |
| 2026-05-07 13:40 | 22.99906 | -154.56556 | 27105 ft | 342 kts | 62° |
| 2026-05-07 13:40 | 23.01004 | -154.54261 | 27106 ft | 342 kts | 62° |
| 2026-05-07 13:40 | 23.02100 | -154.51967 | 27107 ft | 342 kts | 62° |
| 2026-05-07 13:40 | 23.03196 | -154.49673 | 27106 ft | 342 kts | 62° |
| 2026-05-07 13:41 | 23.04293 | -154.47376 | 27107 ft | 342 kts | 62° |
| 2026-05-07 13:41 | 23.05388 | -154.45082 | 27107 ft | 342 kts | 62° |
| 2026-05-07 13:41 | 23.06484 | -154.42784 | 27106 ft | 342 kts | 62° |
| 2026-05-07 13:41 | 23.07578 | -154.40490 | 27106 ft | 342 kts | 62° |
| 2026-05-07 13:42 | 23.08672 | -154.38194 | 27106 ft | 342 kts | 63° |
| 2026-05-07 13:42 | 23.09769 | -154.35893 | 27106 ft | 342 kts | 63° |
| 2026-05-07 13:42 | 23.10861 | -154.33599 | 27107 ft | 342 kts | 63° |
| 2026-05-07 13:42 | 23.11954 | -154.31302 | 27107 ft | 342 kts | 63° |
| 2026-05-07 13:43 | 23.13046 | -154.29007 | 27106 ft | 342 kts | 63° |
| 2026-05-07 13:43 | 23.14138 | -154.26711 | 27106 ft | 342 kts | 63° |
| 2026-05-07 13:43 | 23.15231 | -154.24410 | 27109 ft | 342 kts | 63° |
| 2026-05-07 13:43 | 23.16308 | -154.22143 | 27106 ft | 342 kts | 63° |
| 2026-05-07 13:44 | 23.17414 | -154.19815 | 27110 ft | 342 kts | 63° |
| 2026-05-07 13:44 | 23.18490 | -154.17548 | 27109 ft | 342 kts | 63° |
| 2026-05-07 13:44 | 23.19580 | -154.15248 | 27109 ft | 342 kts | 63° |
| 2026-05-07 13:44 | 23.20672 | -154.12947 | 27109 ft | 342 kts | 63° |
| 2026-05-07 13:45 | 23.21761 | -154.10649 | 27105 ft | 342 kts | 63° |
| 2026-05-07 13:45 | 23.22851 | -154.08348 | 27106 ft | 342 kts | 63° |
| 2026-05-07 13:45 | 23.23942 | -154.06043 | 27107 ft | 342 kts | 63° |
| 2026-05-07 13:45 | 23.25029 | -154.03747 | 27104 ft | 342 kts | 63° |
| 2026-05-07 13:46 | 23.26117 | -154.01447 | 27112 ft | 342 kts | 63° |
| 2026-05-07 13:46 | 23.27207 | -153.99141 | 27109 ft | 342 kts | 63° |
| 2026-05-07 13:46 | 23.28297 | -153.96835 | 27106 ft | 342 kts | 63° |
| 2026-05-07 13:46 | 23.29384 | -153.94534 | 27106 ft | 342 kts | 63° |
| 2026-05-07 13:47 | 23.30472 | -153.92231 | 27105 ft | 342 kts | 63° |
| 2026-05-07 13:47 | 23.31559 | -153.89928 | 27106 ft | 342 kts | 63° |
| 2026-05-07 13:47 | 23.32646 | -153.87623 | 27112 ft | 342 kts | 63° |
| 2026-05-07 13:47 | 23.33732 | -153.85319 | 27106 ft | 343 kts | 63° |
| 2026-05-07 13:48 | 23.34821 | -153.83007 | 27106 ft | 343 kts | 63° |
| 2026-05-07 13:48 | 23.35910 | -153.80697 | 27106 ft | 343 kts | 63° |
| 2026-05-07 13:48 | 23.36997 | -153.78386 | 27107 ft | 343 kts | 63° |
| 2026-05-07 13:48 | 23.38085 | -153.76075 | 27106 ft | 343 kts | 63° |
| 2026-05-07 13:49 | 23.39172 | -153.73764 | 27105 ft | 343 kts | 63° |
| 2026-05-07 13:49 | 23.40261 | -153.71447 | 27109 ft | 343 kts | 63° |
| 2026-05-07 13:49 | 23.41349 | -153.69133 | 27109 ft | 343 kts | 63° |
| 2026-05-07 13:49 | 23.42436 | -153.66818 | 27109 ft | 343 kts | 63° |
| 2026-05-07 13:50 | 23.43522 | -153.64503 | 27106 ft | 343 kts | 63° |
| 2026-05-07 13:50 | 23.44608 | -153.62190 | 27109 ft | 343 kts | 63° |
| 2026-05-07 13:50 | 23.45694 | -153.59874 | 27109 ft | 343 kts | 63° |
| 2026-05-07 13:50 | 23.46780 | -153.57558 | 27109 ft | 343 kts | 63° |
| 2026-05-07 13:51 | 23.47864 | -153.55243 | 27112 ft | 343 kts | 63° |
| 2026-05-07 13:51 | 23.48950 | -153.52926 | 27109 ft | 343 kts | 63° |
| 2026-05-07 13:51 | 23.50036 | -153.50605 | 27109 ft | 343 kts | 63° |
| 2026-05-07 13:51 | 23.51121 | -153.48286 | 27109 ft | 343 kts | 63° |
| 2026-05-07 13:52 | 23.52205 | -153.45968 | 27109 ft | 343 kts | 63° |
| 2026-05-07 13:52 | 23.53275 | -153.43678 | 27111 ft | 344 kts | 63° |
| 2026-05-07 13:52 | 23.54362 | -153.41353 | 27108 ft | 344 kts | 63° |
| 2026-05-07 13:52 | 23.55446 | -153.39030 | 27109 ft | 344 kts | 63° |
| 2026-05-07 13:53 | 23.56533 | -153.36703 | 27108 ft | 344 kts | 63° |
| 2026-05-07 13:53 | 23.57618 | -153.34375 | 27109 ft | 344 kts | 63° |
| 2026-05-07 13:53 | 23.58702 | -153.32050 | 27109 ft | 344 kts | 63° |
| 2026-05-07 13:53 | 23.59788 | -153.29721 | 27109 ft | 345 kts | 63° |
| 2026-05-07 13:54 | 23.60873 | -153.27393 | 27111 ft | 345 kts | 63° |
| 2026-05-07 13:54 | 23.61959 | -153.25058 | 27109 ft | 345 kts | 63° |
| 2026-05-07 13:54 | 23.63044 | -153.22728 | 27109 ft | 345 kts | 63° |
| 2026-05-07 13:54 | 23.64129 | -153.20396 | 27109 ft | 345 kts | 63° |
| 2026-05-07 13:55 | 23.65213 | -153.18063 | 27109 ft | 345 kts | 63° |
| 2026-05-07 13:55 | 23.66297 | -153.15730 | 27109 ft | 345 kts | 63° |
| 2026-05-07 13:55 | 23.67381 | -153.13396 | 27109 ft | 345 kts | 63° |
| 2026-05-07 13:55 | 23.68465 | -153.11061 | 27107 ft | 345 kts | 63° |
| 2026-05-07 13:56 | 23.69548 | -153.08728 | 27112 ft | 345 kts | 63° |
| 2026-05-07 13:56 | 23.70630 | -153.06394 | 27109 ft | 345 kts | 63° |
| 2026-05-07 13:56 | 23.71712 | -153.04061 | 27109 ft | 345 kts | 63° |
| 2026-05-07 13:56 | 23.72795 | -153.01724 | 27109 ft | 345 kts | 63° |
| 2026-05-07 13:57 | 23.73876 | -152.99389 | 27114 ft | 345 kts | 63° |
| 2026-05-07 13:57 | 23.74959 | -152.97050 | 27112 ft | 345 kts | 63° |
| 2026-05-07 13:57 | 23.76040 | -152.94712 | 27112 ft | 345 kts | 63° |
| 2026-05-07 13:57 | 23.77123 | -152.92371 | 27112 ft | 345 kts | 63° |
| 2026-05-07 13:58 | 23.78204 | -152.90032 | 27112 ft | 345 kts | 63° |
| 2026-05-07 13:58 | 23.79287 | -152.87687 | 27109 ft | 345 kts | 63° |
| 2026-05-07 13:58 | 23.80368 | -152.85345 | 27109 ft | 345 kts | 63° |
| 2026-05-07 13:58 | 23.81448 | -152.83006 | 27112 ft | 345 kts | 63° |
| 2026-05-07 13:59 | 23.82530 | -152.80661 | 27112 ft | 345 kts | 63° |
| 2026-05-07 13:59 | 23.83596 | -152.78349 | 27112 ft | 345 kts | 63° |
| 2026-05-07 13:59 | 23.84675 | -152.76007 | 27112 ft | 345 kts | 63° |
| 2026-05-07 13:59 | 23.85755 | -152.73661 | 27112 ft | 346 kts | 63° |
| 2026-05-07 14:00 | 23.86835 | -152.71316 | 27112 ft | 346 kts | 63° |
| 2026-05-07 14:00 | 23.87914 | -152.68970 | 27115 ft | 346 kts | 63° |
| 2026-05-07 14:00 | 23.88993 | -152.66624 | 27115 ft | 346 kts | 63° |
| 2026-05-07 14:00 | 23.90074 | -152.64273 | 27115 ft | 346 kts | 63° |
| 2026-05-07 14:01 | 23.91152 | -152.61927 | 27114 ft | 346 kts | 63° |
| 2026-05-07 14:01 | 23.92231 | -152.59577 | 27112 ft | 346 kts | 63° |
| 2026-05-07 14:01 | 23.93308 | -152.57229 | 27115 ft | 346 kts | 63° |
| 2026-05-07 14:01 | 23.94388 | -152.54876 | 27112 ft | 346 kts | 63° |
| 2026-05-07 14:02 | 23.95467 | -152.52523 | 27114 ft | 346 kts | 63° |
| 2026-05-07 14:02 | 23.96544 | -152.50172 | 27115 ft | 346 kts | 63° |
| 2026-05-07 14:02 | 23.97622 | -152.47818 | 27114 ft | 346 kts | 63° |
| 2026-05-07 14:02 | 23.98701 | -152.45463 | 27115 ft | 346 kts | 63° |
| 2026-05-07 14:03 | 23.99778 | -152.43108 | 27115 ft | 346 kts | 63° |
| 2026-05-07 14:03 | 24.00840 | -152.40785 | 27115 ft | 346 kts | 63° |
| 2026-05-07 14:03 | 24.01930 | -152.38401 | 27112 ft | 346 kts | 63° |
| 2026-05-07 14:03 | 24.02992 | -152.36077 | 27112 ft | 346 kts | 63° |
| 2026-05-07 14:04 | 24.04067 | -152.33723 | 27113 ft | 346 kts | 63° |
| 2026-05-07 14:04 | 24.05144 | -152.31365 | 27115 ft | 346 kts | 63° |
| 2026-05-07 14:04 | 24.06218 | -152.29009 | 27115 ft | 346 kts | 63° |
| 2026-05-07 14:04 | 24.07293 | -152.26651 | 27114 ft | 346 kts | 63° |
| 2026-05-07 14:05 | 24.08368 | -152.24292 | 27116 ft | 346 kts | 63° |
| 2026-05-07 14:05 | 24.09441 | -152.21937 | 27111 ft | 346 kts | 63° |
| 2026-05-07 14:05 | 24.10517 | -152.19575 | 27114 ft | 346 kts | 63° |
| 2026-05-07 14:05 | 24.11590 | -152.17217 | 27115 ft | 346 kts | 63° |
| 2026-05-07 14:06 | 24.12665 | -152.14853 | 27115 ft | 346 kts | 63° |
| 2026-05-07 14:06 | 24.13736 | -152.12498 | 27118 ft | 346 kts | 63° |
| 2026-05-07 14:06 | 24.14811 | -152.10131 | 27114 ft | 347 kts | 63° |
| 2026-05-07 14:06 | 24.15886 | -152.07763 | 27115 ft | 347 kts | 63° |
| 2026-05-07 14:07 | 24.16961 | -152.05396 | 27116 ft | 347 kts | 63° |
| 2026-05-07 14:07 | 24.18034 | -152.03030 | 27115 ft | 347 kts | 63° |
| 2026-05-07 14:07 | 24.19109 | -152.00658 | 27114 ft | 347 kts | 63° |
| 2026-05-07 14:07 | 24.20184 | -151.98288 | 27115 ft | 347 kts | 63° |
| 2026-05-07 14:08 | 24.21259 | -151.95915 | 27112 ft | 347 kts | 63° |
| 2026-05-07 14:08 | 24.22333 | -151.93542 | 27115 ft | 347 kts | 63° |
| 2026-05-07 14:08 | 24.23407 | -151.91169 | 27110 ft | 348 kts | 63° |
| 2026-05-07 14:08 | 24.24479 | -151.88799 | 27113 ft | 347 kts | 63° |
| 2026-05-07 14:09 | 24.25536 | -151.86459 | 27119 ft | 347 kts | 63° |
| 2026-05-07 14:09 | 24.26608 | -151.84087 | 27117 ft | 347 kts | 63° |
| 2026-05-07 14:09 | 24.27679 | -151.81715 | 27117 ft | 347 kts | 63° |
| 2026-05-07 14:09 | 24.28751 | -151.79339 | 27117 ft | 347 kts | 63° |
| 2026-05-07 14:10 | 24.29823 | -151.76964 | 27115 ft | 347 kts | 63° |
| 2026-05-07 14:10 | 24.30893 | -151.74591 | 27115 ft | 347 kts | 63° |
| 2026-05-07 14:10 | 24.31964 | -151.72213 | 27115 ft | 347 kts | 63° |
| 2026-05-07 14:10 | 24.33034 | -151.69838 | 27117 ft | 348 kts | 63° |
| 2026-05-07 14:11 | 24.34105 | -151.67460 | 27117 ft | 348 kts | 63° |
| 2026-05-07 14:11 | 24.35175 | -151.65082 | 27117 ft | 348 kts | 63° |
| 2026-05-07 14:11 | 24.36246 | -151.62700 | 27117 ft | 348 kts | 63° |
| 2026-05-07 14:11 | 24.37320 | -151.60312 | 27117 ft | 348 kts | 63° |
| 2026-05-07 14:12 | 24.38388 | -151.57934 | 27118 ft | 348 kts | 63° |
| 2026-05-07 14:12 | 24.39459 | -151.55548 | 27117 ft | 348 kts | 63° |
| 2026-05-07 14:12 | 24.40530 | -151.53163 | 27117 ft | 348 kts | 63° |
| 2026-05-07 14:12 | 24.41600 | -151.50778 | 27117 ft | 349 kts | 63° |
| 2026-05-07 14:13 | 24.42671 | -151.48388 | 27117 ft | 349 kts | 63° |
| 2026-05-07 14:13 | 24.43740 | -151.46001 | 27117 ft | 349 kts | 63° |
| 2026-05-07 14:13 | 24.44809 | -151.43615 | 27117 ft | 349 kts | 63° |
| 2026-05-07 14:13 | 24.45865 | -151.41256 | 27117 ft | 349 kts | 63° |
| 2026-05-07 14:14 | 24.46935 | -151.38865 | 27116 ft | 349 kts | 63° |
| 2026-05-07 14:14 | 24.48003 | -151.36477 | 27117 ft | 349 kts | 63° |
| 2026-05-07 14:14 | 24.49071 | -151.34087 | 27117 ft | 349 kts | 63° |
| 2026-05-07 14:14 | 24.50138 | -151.31697 | 27117 ft | 349 kts | 63° |
| 2026-05-07 14:15 | 24.51205 | -151.29307 | 27115 ft | 348 kts | 63° |
| 2026-05-07 14:15 | 24.52271 | -151.26919 | 27122 ft | 349 kts | 63° |
| 2026-05-07 14:15 | 24.53340 | -151.24522 | 27117 ft | 349 kts | 63° |
| 2026-05-07 14:15 | 24.54408 | -151.22125 | 27117 ft | 350 kts | 63° |
| 2026-05-07 14:16 | 24.55476 | -151.19728 | 27119 ft | 350 kts | 63° |
| 2026-05-07 14:16 | 24.56547 | -151.17324 | 27117 ft | 350 kts | 63° |
| 2026-05-07 14:16 | 24.57618 | -151.14915 | 27117 ft | 350 kts | 63° |
| 2026-05-07 14:16 | 24.58689 | -151.12509 | 27117 ft | 351 kts | 63° |
| 2026-05-07 14:17 | 24.59759 | -151.10101 | 27115 ft | 351 kts | 63° |
| 2026-05-07 14:17 | 24.60829 | -151.07694 | 27117 ft | 351 kts | 63° |
| 2026-05-07 14:17 | 24.61897 | -151.05288 | 27117 ft | 351 kts | 63° |
| 2026-05-07 14:17 | 24.62967 | -151.02877 | 27118 ft | 351 kts | 63° |
| 2026-05-07 14:18 | 24.64035 | -151.00470 | 27115 ft | 350 kts | 63° |
| 2026-05-07 14:18 | 24.65105 | -150.98058 | 27117 ft | 350 kts | 63° |
| 2026-05-07 14:18 | 24.65811 | -150.96463 | 27118 ft | 350 kts | 63° |
| 2026-05-07 14:18 | 24.66878 | -150.94055 | 27117 ft | 350 kts | 63° |
| 2026-05-07 14:19 | 24.67942 | -150.91651 | 27123 ft | 350 kts | 63° |
| 2026-05-07 14:19 | 24.69009 | -150.89241 | 27120 ft | 350 kts | 63° |
| 2026-05-07 14:19 | 24.70074 | -150.86834 | 27120 ft | 350 kts | 63° |
| 2026-05-07 14:19 | 24.71140 | -150.84423 | 27121 ft | 351 kts | 63° |
| 2026-05-07 14:20 | 24.72207 | -150.82007 | 27119 ft | 351 kts | 63° |
| 2026-05-07 14:20 | 24.73273 | -150.79593 | 27118 ft | 351 kts | 63° |
| 2026-05-07 14:20 | 24.74339 | -150.77177 | 27121 ft | 351 kts | 63° |
| 2026-05-07 14:20 | 24.75407 | -150.74756 | 27117 ft | 352 kts | 63° |
| 2026-05-07 14:21 | 24.76474 | -150.72336 | 27119 ft | 351 kts | 63° |
| 2026-05-07 14:21 | 24.77539 | -150.69918 | 27120 ft | 351 kts | 63° |
| 2026-05-07 14:21 | 24.78605 | -150.67499 | 27120 ft | 351 kts | 63° |
| 2026-05-07 14:21 | 24.79670 | -150.65079 | 27120 ft | 351 kts | 63° |
| 2026-05-07 14:22 | 24.81095 | -150.61838 | 27120 ft | 351 kts | 63° |
| 2026-05-07 14:22 | 24.81803 | -150.60228 | 27120 ft | 351 kts | 63° |
| 2026-05-07 14:22 | 24.82866 | -150.57809 | 27120 ft | 351 kts | 63° |
| 2026-05-07 14:22 | 24.83929 | -150.55389 | 27120 ft | 351 kts | 63° |
| 2026-05-07 14:23 | 24.84993 | -150.52965 | 27121 ft | 351 kts | 63° |
| 2026-05-07 14:23 | 24.86056 | -150.50542 | 27120 ft | 351 kts | 63° |
| 2026-05-07 14:23 | 24.87119 | -150.48118 | 27120 ft | 351 kts | 63° |
| 2026-05-07 14:23 | 24.88180 | -150.45696 | 27116 ft | 351 kts | 63° |
| 2026-05-07 14:24 | 24.89242 | -150.43272 | 27125 ft | 351 kts | 63° |
| 2026-05-07 14:24 | 24.90303 | -150.40847 | 27119 ft | 352 kts | 63° |
| 2026-05-07 14:24 | 24.91366 | -150.38419 | 27119 ft | 352 kts | 63° |
| 2026-05-07 14:24 | 24.92431 | -150.35983 | 27118 ft | 352 kts | 63° |
| 2026-05-07 14:25 | 24.93492 | -150.33555 | 27125 ft | 352 kts | 63° |
| 2026-05-07 14:25 | 24.94557 | -150.31118 | 27123 ft | 353 kts | 63° |
| 2026-05-07 14:25 | 24.95621 | -150.28681 | 27124 ft | 353 kts | 63° |
| 2026-05-07 14:25 | 24.96684 | -150.26244 | 27124 ft | 353 kts | 63° |
| 2026-05-07 14:26 | 24.97747 | -150.23808 | 27118 ft | 353 kts | 63° |
| 2026-05-07 14:26 | 24.98810 | -150.21369 | 27121 ft | 353 kts | 63° |
| 2026-05-07 14:26 | 24.99871 | -150.18932 | 27119 ft | 353 kts | 63° |
| 2026-05-07 14:26 | 25.00936 | -150.16488 | 27118 ft | 353 kts | 63° |
| 2026-05-07 14:27 | 25.01983 | -150.14080 | 27121 ft | 353 kts | 63° |
| 2026-05-07 14:27 | 25.03044 | -150.11642 | 27123 ft | 353 kts | 63° |
| 2026-05-07 14:27 | 25.04104 | -150.09203 | 27123 ft | 353 kts | 63° |
| 2026-05-07 14:27 | 25.05164 | -150.06762 | 27123 ft | 353 kts | 63° |
| 2026-05-07 14:28 | 25.06223 | -150.04322 | 27121 ft | 353 kts | 63° |
| 2026-05-07 14:28 | 25.07283 | -150.01881 | 27120 ft | 353 kts | 63° |
| 2026-05-07 14:28 | 25.08343 | -149.99437 | 27120 ft | 353 kts | 63° |
| 2026-05-07 14:28 | 25.09400 | -149.96998 | 27120 ft | 353 kts | 63° |
| 2026-05-07 14:29 | 25.10458 | -149.94555 | 27121 ft | 353 kts | 63° |
| 2026-05-07 14:29 | 25.11515 | -149.92115 | 27123 ft | 353 kts | 63° |
| 2026-05-07 14:29 | 25.12573 | -149.89669 | 27123 ft | 353 kts | 63° |
| 2026-05-07 14:29 | 25.13630 | -149.87226 | 27123 ft | 353 kts | 63° |
| 2026-05-07 14:30 | 25.14685 | -149.84784 | 27121 ft | 352 kts | 63° |
| 2026-05-07 14:30 | 25.15740 | -149.82342 | 27125 ft | 352 kts | 63° |
| 2026-05-07 14:30 | 25.16793 | -149.79904 | 27126 ft | 352 kts | 63° |
| 2026-05-07 14:30 | 25.17847 | -149.77462 | 27125 ft | 352 kts | 64° |
| 2026-05-07 14:31 | 25.18899 | -149.75024 | 27124 ft | 352 kts | 63° |
| 2026-05-07 14:31 | 25.19954 | -149.72576 | 27123 ft | 352 kts | 64° |
| 2026-05-07 14:31 | 25.21004 | -149.70138 | 27122 ft | 352 kts | 64° |
| 2026-05-07 14:31 | 25.22044 | -149.67724 | 27123 ft | 352 kts | 64° |
| 2026-05-07 14:32 | 25.23094 | -149.65283 | 27124 ft | 352 kts | 64° |
| 2026-05-07 14:32 | 25.24143 | -149.62844 | 27126 ft | 352 kts | 64° |
| 2026-05-07 14:32 | 25.25192 | -149.60404 | 27131 ft | 352 kts | 63° |
| 2026-05-07 14:32 | 25.26242 | -149.57960 | 27122 ft | 352 kts | 64° |
| 2026-05-07 14:33 | 25.27292 | -149.55514 | 27127 ft | 352 kts | 64° |
| 2026-05-07 14:33 | 25.28343 | -149.53066 | 27126 ft | 352 kts | 64° |
| 2026-05-07 14:33 | 25.29392 | -149.50619 | 27126 ft | 352 kts | 64° |
| 2026-05-07 14:33 | 25.30443 | -149.48168 | 27125 ft | 353 kts | 64° |
| 2026-05-07 14:34 | 25.31492 | -149.45719 | 27128 ft | 353 kts | 64° |
| 2026-05-07 14:34 | 25.32541 | -149.43271 | 27128 ft | 353 kts | 64° |
| 2026-05-07 14:34 | 25.33591 | -149.40817 | 27128 ft | 353 kts | 64° |
| 2026-05-07 14:34 | 25.34638 | -149.38368 | 27128 ft | 353 kts | 64° |
| 2026-05-07 14:35 | 25.35687 | -149.35915 | 27131 ft | 353 kts | 64° |
| 2026-05-07 14:35 | 25.36735 | -149.33462 | 27131 ft | 353 kts | 64° |
| 2026-05-07 14:35 | 25.37782 | -149.31009 | 27128 ft | 353 kts | 64° |
| 2026-05-07 14:35 | 25.38830 | -149.28553 | 27131 ft | 353 kts | 64° |
| 2026-05-07 14:36 | 25.39875 | -149.26102 | 27133 ft | 353 kts | 64° |
| 2026-05-07 14:36 | 25.40907 | -149.23681 | 27131 ft | 353 kts | 64° |
| 2026-05-07 14:36 | 25.41952 | -149.21230 | 27131 ft | 353 kts | 64° |
| 2026-05-07 14:36 | 25.42997 | -149.18774 | 27135 ft | 353 kts | 64° |
| 2026-05-07 14:37 | 25.44044 | -149.16314 | 27126 ft | 354 kts | 64° |
| 2026-05-07 14:37 | 25.46140 | -149.11385 | 27134 ft | 354 kts | 64° |
| 2026-05-07 14:37 | 25.47185 | -149.08924 | 27134 ft | 354 kts | 64° |
| 2026-05-07 14:38 | 25.48235 | -149.06451 | 27131 ft | 354 kts | 64° |
| 2026-05-07 14:38 | 25.49282 | -149.03983 | 27131 ft | 355 kts | 64° |
| 2026-05-07 14:38 | 25.50331 | -149.01511 | 27127 ft | 355 kts | 64° |
| 2026-05-07 14:38 | 25.51379 | -148.99038 | 27131 ft | 354 kts | 64° |
| 2026-05-07 14:39 | 25.52425 | -148.96568 | 27134 ft | 354 kts | 64° |
| 2026-05-07 14:39 | 25.53472 | -148.94096 | 27134 ft | 354 kts | 64° |
| 2026-05-07 14:39 | 25.54517 | -148.91626 | 27134 ft | 354 kts | 64° |
| 2026-05-07 14:39 | 25.55561 | -148.89156 | 27134 ft | 354 kts | 64° |
| 2026-05-07 14:40 | 25.56606 | -148.86685 | 27132 ft | 354 kts | 64° |
| 2026-05-07 14:40 | 25.57649 | -148.84215 | 27134 ft | 354 kts | 64° |
| 2026-05-07 14:40 | 25.58692 | -148.81745 | 27134 ft | 354 kts | 64° |
| 2026-05-07 14:40 | 25.59736 | -148.79271 | 27140 ft | 354 kts | 64° |
| 2026-05-07 14:41 | 25.60781 | -148.76792 | 27134 ft | 355 kts | 64° |
| 2026-05-07 14:41 | 25.61812 | -148.74346 | 27133 ft | 355 kts | 64° |
| 2026-05-07 14:41 | 25.62870 | -148.71834 | 27135 ft | 355 kts | 64° |
| 2026-05-07 14:41 | 25.63902 | -148.69382 | 27137 ft | 355 kts | 64° |
| 2026-05-07 14:42 | 25.64947 | -148.66899 | 27137 ft | 356 kts | 64° |
| 2026-05-07 14:42 | 25.65992 | -148.64413 | 27138 ft | 356 kts | 64° |
| 2026-05-07 14:42 | 25.67037 | -148.61926 | 27136 ft | 356 kts | 64° |
| 2026-05-07 14:42 | 25.68081 | -148.59440 | 27138 ft | 356 kts | 64° |
| 2026-05-07 14:43 | 25.69126 | -148.56951 | 27138 ft | 356 kts | 64° |
| 2026-05-07 14:43 | 25.70169 | -148.54462 | 27137 ft | 356 kts | 64° |
| 2026-05-07 14:43 | 25.71213 | -148.51973 | 27134 ft | 356 kts | 64° |
| 2026-05-07 14:43 | 25.72256 | -148.49483 | 27138 ft | 356 kts | 64° |
| 2026-05-07 14:44 | 25.73299 | -148.46994 | 27133 ft | 356 kts | 64° |
| 2026-05-07 14:44 | 25.74340 | -148.44504 | 27136 ft | 356 kts | 64° |
| 2026-05-07 14:44 | 25.75380 | -148.42018 | 27137 ft | 356 kts | 64° |
| 2026-05-07 14:44 | 25.76422 | -148.39526 | 27146 ft | 356 kts | 64° |
| 2026-05-07 14:45 | 25.77462 | -148.37036 | 27139 ft | 356 kts | 64° |
| 2026-05-07 14:45 | 25.78505 | -148.34538 | 27136 ft | 357 kts | 64° |
| 2026-05-07 14:45 | 25.79549 | -148.32036 | 27135 ft | 357 kts | 64° |
| 2026-05-07 14:45 | 25.80592 | -148.29535 | 27137 ft | 357 kts | 64° |
| 2026-05-07 14:46 | 25.81635 | -148.27033 | 27136 ft | 357 kts | 64° |
| 2026-05-07 14:46 | 25.82679 | -148.24526 | 27139 ft | 358 kts | 64° |
| 2026-05-07 14:46 | 25.83723 | -148.22018 | 27139 ft | 358 kts | 64° |
| 2026-05-07 14:46 | 25.84752 | -148.19544 | 27140 ft | 358 kts | 64° |
| 2026-05-07 14:47 | 25.85793 | -148.17041 | 27139 ft | 358 kts | 64° |
| 2026-05-07 14:47 | 25.86839 | -148.14525 | 27135 ft | 358 kts | 64° |
| 2026-05-07 14:47 | 25.87881 | -148.12016 | 27138 ft | 358 kts | 64° |
| 2026-05-07 14:47 | 25.88922 | -148.09507 | 27136 ft | 358 kts | 64° |
| 2026-05-07 14:48 | 25.89963 | -148.06997 | 27139 ft | 358 kts | 64° |
| 2026-05-07 14:48 | 25.91003 | -148.04489 | 27140 ft | 358 kts | 64° |
| 2026-05-07 14:48 | 25.92045 | -148.01974 | 27137 ft | 358 kts | 64° |
| 2026-05-07 14:48 | 25.93086 | -147.99461 | 27145 ft | 358 kts | 64° |
| 2026-05-07 14:49 | 25.94125 | -147.96949 | 27142 ft | 359 kts | 64° |
| 2026-05-07 14:49 | 25.95167 | -147.94430 | 27139 ft | 359 kts | 64° |
| 2026-05-07 14:49 | 25.96209 | -147.91909 | 27132 ft | 359 kts | 64° |
| 2026-05-07 14:49 | 25.97250 | -147.89388 | 27139 ft | 359 kts | 64° |
| 2026-05-07 14:50 | 25.98291 | -147.86868 | 27142 ft | 359 kts | 64° |
| 2026-05-07 14:50 | 25.99331 | -147.84347 | 27138 ft | 359 kts | 64° |
| 2026-05-07 14:50 | 26.00370 | -147.81827 | 27138 ft | 359 kts | 64° |
| 2026-05-07 14:50 | 26.01410 | -147.79302 | 27140 ft | 359 kts | 64° |
| 2026-05-07 14:51 | 26.02450 | -147.76779 | 27139 ft | 359 kts | 64° |
| 2026-05-07 14:51 | 26.03477 | -147.74283 | 27138 ft | 359 kts | 64° |
| 2026-05-07 14:51 | 26.04528 | -147.71727 | 27138 ft | 359 kts | 64° |
| 2026-05-07 14:51 | 26.05566 | -147.69202 | 27139 ft | 359 kts | 64° |
| 2026-05-07 14:52 | 26.06590 | -147.66711 | 27134 ft | 359 kts | 64° |
| 2026-05-07 14:52 | 26.07626 | -147.64187 | 27131 ft | 359 kts | 64° |
| 2026-05-07 14:52 | 26.08663 | -147.61660 | 27139 ft | 359 kts | 64° |
| 2026-05-07 14:52 | 26.09697 | -147.59140 | 27145 ft | 359 kts | 65° |
| 2026-05-07 14:53 | 26.10736 | -147.56606 | 27139 ft | 359 kts | 65° |
| 2026-05-07 14:53 | 26.11773 | -147.54074 | 27140 ft | 360 kts | 65° |
| 2026-05-07 14:53 | 26.12809 | -147.51542 | 27142 ft | 360 kts | 65° |
| 2026-05-07 14:53 | 26.13845 | -147.49011 | 27142 ft | 360 kts | 65° |
| 2026-05-07 14:54 | 26.14883 | -147.46471 | 27139 ft | 360 kts | 65° |
| 2026-05-07 14:54 | 26.15920 | -147.43933 | 27137 ft | 360 kts | 65° |
| 2026-05-07 14:54 | 26.16958 | -147.41393 | 27138 ft | 360 kts | 65° |
| 2026-05-07 14:54 | 26.17997 | -147.38847 | 27140 ft | 360 kts | 65° |
| 2026-05-07 14:55 | 26.19033 | -147.36307 | 27137 ft | 360 kts | 65° |
| 2026-05-07 14:55 | 26.20067 | -147.33769 | 27140 ft | 360 kts | 65° |
| 2026-05-07 14:55 | 26.21102 | -147.31228 | 27139 ft | 360 kts | 65° |
| 2026-05-07 14:55 | 26.22137 | -147.28687 | 27139 ft | 360 kts | 65° |
| 2026-05-07 14:56 | 26.23170 | -147.26147 | 27148 ft | 360 kts | 65° |
| 2026-05-07 14:56 | 26.24203 | -147.23607 | 27147 ft | 360 kts | 65° |
| 2026-05-07 14:56 | 26.25234 | -147.21069 | 27151 ft | 360 kts | 65° |
| 2026-05-07 14:56 | 26.26267 | -147.18525 | 27145 ft | 360 kts | 65° |
| 2026-05-07 14:57 | 26.27298 | -147.15985 | 27146 ft | 361 kts | 65° |
| 2026-05-07 14:57 | 26.28331 | -147.13439 | 27144 ft | 361 kts | 65° |
| 2026-05-07 14:57 | 26.29365 | -147.10889 | 27140 ft | 361 kts | 65° |
| 2026-05-07 14:57 | 26.30398 | -147.08340 | 27145 ft | 361 kts | 65° |
| 2026-05-07 14:58 | 26.31428 | -147.05795 | 27146 ft | 360 kts | 65° |
| 2026-05-07 14:58 | 26.32459 | -147.03248 | 27146 ft | 360 kts | 65° |
| 2026-05-07 14:58 | 26.33489 | -147.00701 | 27148 ft | 360 kts | 65° |
| 2026-05-07 14:58 | 26.34518 | -146.98153 | 27146 ft | 360 kts | 65° |
| 2026-05-07 14:59 | 26.35547 | -146.95606 | 27147 ft | 360 kts | 65° |
| 2026-05-07 14:59 | 26.36575 | -146.93059 | 27149 ft | 360 kts | 65° |
| 2026-05-07 14:59 | 26.37606 | -146.90504 | 27150 ft | 360 kts | 65° |
| 2026-05-07 14:59 | 26.38633 | -146.87955 | 27148 ft | 360 kts | 65° |
| 2026-05-07 15:00 | 26.39648 | -146.85436 | 27147 ft | 360 kts | 65° |
| 2026-05-07 15:00 | 26.40675 | -146.82886 | 27148 ft | 360 kts | 65° |
| 2026-05-07 15:00 | 26.41701 | -146.80336 | 27155 ft | 361 kts | 65° |
| 2026-05-07 15:00 | 26.42727 | -146.77784 | 27149 ft | 361 kts | 65° |
| 2026-05-07 15:01 | 26.43755 | -146.75228 | 27150 ft | 361 kts | 65° |
| 2026-05-07 15:01 | 26.44783 | -146.72668 | 27146 ft | 361 kts | 65° |
| 2026-05-07 15:01 | 26.45809 | -146.70110 | 27147 ft | 362 kts | 65° |
| 2026-05-07 15:01 | 26.46838 | -146.67546 | 27148 ft | 362 kts | 65° |
| 2026-05-07 15:02 | 26.47865 | -146.64984 | 27146 ft | 362 kts | 65° |
| 2026-05-07 15:02 | 26.48891 | -146.62422 | 27150 ft | 362 kts | 65° |
| 2026-05-07 15:02 | 26.49918 | -146.59857 | 27150 ft | 362 kts | 65° |
| 2026-05-07 15:02 | 26.50944 | -146.57293 | 27142 ft | 362 kts | 65° |
| 2026-05-07 15:03 | 26.51969 | -146.54730 | 27148 ft | 361 kts | 65° |
| 2026-05-07 15:03 | 26.52991 | -146.52173 | 27149 ft | 361 kts | 65° |
| 2026-05-07 15:03 | 26.54015 | -146.49610 | 27149 ft | 361 kts | 65° |
| 2026-05-07 15:03 | 26.55036 | -146.47051 | 27149 ft | 361 kts | 65° |
| 2026-05-07 15:04 | 26.56057 | -146.44491 | 27153 ft | 361 kts | 65° |
| 2026-05-07 15:04 | 26.57079 | -146.41927 | 27160 ft | 361 kts | 65° |
| 2026-05-07 15:04 | 26.58100 | -146.39365 | 27155 ft | 361 kts | 65° |
| 2026-05-07 15:04 | 26.59121 | -146.36800 | 27155 ft | 362 kts | 65° |
| 2026-05-07 15:05 | 26.60143 | -146.34231 | 27156 ft | 362 kts | 65° |
| 2026-05-07 15:05 | 26.61164 | -146.31663 | 27156 ft | 362 kts | 65° |
| 2026-05-07 15:05 | 26.62186 | -146.29091 | 27156 ft | 362 kts | 65° |
| 2026-05-07 15:05 | 26.62862 | -146.27389 | 27158 ft | 362 kts | 65° |
| 2026-05-07 15:06 | 26.63884 | -146.24815 | 27156 ft | 362 kts | 65° |
| 2026-05-07 15:06 | 26.64902 | -146.22249 | 27158 ft | 362 kts | 65° |
| 2026-05-07 15:06 | 26.65921 | -146.19678 | 27158 ft | 362 kts | 65° |
| 2026-05-07 15:06 | 26.67270 | -146.16272 | 27157 ft | 362 kts | 65° |
| 2026-05-07 15:07 | 26.67958 | -146.14534 | 27159 ft | 362 kts | 65° |
| 2026-05-07 15:07 | 26.68975 | -146.11964 | 27153 ft | 362 kts | 65° |
| 2026-05-07 15:07 | 26.69993 | -146.09390 | 27155 ft | 362 kts | 65° |
| 2026-05-07 15:07 | 26.71010 | -146.06817 | 27156 ft | 362 kts | 65° |
| 2026-05-07 15:08 | 26.72026 | -146.04243 | 27154 ft | 362 kts | 65° |
| 2026-05-07 15:08 | 26.73042 | -146.01669 | 27156 ft | 362 kts | 65° |
| 2026-05-07 15:08 | 26.74043 | -145.99132 | 27154 ft | 362 kts | 65° |
| 2026-05-07 15:08 | 26.75058 | -145.96557 | 27156 ft | 361 kts | 65° |
| 2026-05-07 15:09 | 26.76072 | -145.93984 | 27153 ft | 362 kts | 65° |
| 2026-05-07 15:09 | 26.77088 | -145.91403 | 27156 ft | 361 kts | 65° |
| 2026-05-07 15:09 | 26.78101 | -145.88828 | 27158 ft | 361 kts | 65° |
| 2026-05-07 15:09 | 26.79114 | -145.86249 | 27159 ft | 362 kts | 65° |
| 2026-05-07 15:10 | 26.80127 | -145.83673 | 27161 ft | 362 kts | 65° |
| 2026-05-07 15:10 | 26.81139 | -145.81095 | 27158 ft | 362 kts | 65° |
| 2026-05-07 15:10 | 26.82150 | -145.78518 | 27158 ft | 362 kts | 65° |
| 2026-05-07 15:10 | 26.83160 | -145.75943 | 27156 ft | 361 kts | 65° |
| 2026-05-07 15:11 | 26.84168 | -145.73370 | 27162 ft | 361 kts | 65° |
| 2026-05-07 15:11 | 26.85177 | -145.70794 | 27159 ft | 361 kts | 65° |
| 2026-05-07 15:11 | 26.86171 | -145.68256 | 27159 ft | 361 kts | 65° |
| 2026-05-07 15:11 | 26.87191 | -145.65648 | 27160 ft | 361 kts | 65° |
| 2026-05-07 15:12 | 26.88184 | -145.63106 | 27158 ft | 361 kts | 65° |
| 2026-05-07 15:12 | 26.89205 | -145.60494 | 27159 ft | 361 kts | 65° |
| 2026-05-07 15:12 | 26.90198 | -145.57950 | 27158 ft | 361 kts | 65° |
| 2026-05-07 15:12 | 26.91204 | -145.55372 | 27161 ft | 361 kts | 65° |
| 2026-05-07 15:13 | 26.92212 | -145.52787 | 27164 ft | 362 kts | 65° |
| 2026-05-07 15:13 | 26.93217 | -145.50208 | 27158 ft | 361 kts | 65° |
| 2026-05-07 15:13 | 26.94221 | -145.47629 | 27161 ft | 361 kts | 65° |
| 2026-05-07 15:13 | 26.95224 | -145.45051 | 27164 ft | 361 kts | 65° |
| 2026-05-07 15:14 | 26.96227 | -145.42471 | 27162 ft | 361 kts | 65° |
| 2026-05-07 15:14 | 26.97230 | -145.39891 | 27164 ft | 361 kts | 65° |
| 2026-05-07 15:14 | 26.98230 | -145.37316 | 27163 ft | 361 kts | 65° |
| 2026-05-07 15:14 | 26.99233 | -145.34731 | 27162 ft | 361 kts | 65° |
| 2026-05-07 15:15 | 27.00233 | -145.32154 | 27167 ft | 361 kts | 65° |
| 2026-05-07 15:15 | 27.01233 | -145.29574 | 27177 ft | 361 kts | 65° |
| 2026-05-07 15:15 | 27.02233 | -145.26991 | 27167 ft | 362 kts | 65° |
| 2026-05-07 15:15 | 27.03235 | -145.24404 | 27163 ft | 361 kts | 65° |
| 2026-05-07 15:16 | 27.04235 | -145.21818 | 27170 ft | 361 kts | 65° |
| 2026-05-07 15:16 | 27.05235 | -145.19231 | 27167 ft | 361 kts | 65° |
| 2026-05-07 15:16 | 27.06235 | -145.16645 | 27166 ft | 361 kts | 65° |
| 2026-05-07 15:16 | 27.07233 | -145.14059 | 27166 ft | 361 kts | 65° |
| 2026-05-07 15:17 | 27.08232 | -145.11470 | 27165 ft | 361 kts | 65° |
| 2026-05-07 15:17 | 27.09230 | -145.08882 | 27169 ft | 361 kts | 66° |
| 2026-05-07 15:17 | 27.10227 | -145.06293 | 27170 ft | 361 kts | 65° |
| 2026-05-07 15:17 | 27.11226 | -145.03701 | 27169 ft | 361 kts | 66° |
| 2026-05-07 15:18 | 27.12222 | -145.01113 | 27168 ft | 361 kts | 66° |
| 2026-05-07 15:18 | 27.13217 | -144.98526 | 27167 ft | 361 kts | 65° |
| 2026-05-07 15:18 | 27.14211 | -144.95939 | 27168 ft | 361 kts | 66° |
| 2026-05-07 15:18 | 27.15204 | -144.93354 | 27168 ft | 360 kts | 66° |
| 2026-05-07 15:19 | 27.16197 | -144.90767 | 27171 ft | 361 kts | 66° |
| 2026-05-07 15:19 | 27.17191 | -144.88175 | 27168 ft | 361 kts | 66° |
| 2026-05-07 15:19 | 27.18172 | -144.85615 | 27169 ft | 362 kts | 66° |
| 2026-05-07 15:19 | 27.19167 | -144.83019 | 27169 ft | 362 kts | 66° |
| 2026-05-07 15:20 | 27.20174 | -144.80386 | 27171 ft | 362 kts | 66° |
| 2026-05-07 15:20 | 27.21168 | -144.77788 | 27169 ft | 362 kts | 66° |
| 2026-05-07 15:20 | 27.22149 | -144.75224 | 27169 ft | 362 kts | 66° |
| 2026-05-07 15:20 | 27.23155 | -144.72590 | 27171 ft | 362 kts | 66° |
| 2026-05-07 15:21 | 27.24135 | -144.70023 | 27172 ft | 362 kts | 66° |
| 2026-05-07 15:21 | 27.25126 | -144.67427 | 27172 ft | 361 kts | 66° |
| 2026-05-07 15:21 | 27.26114 | -144.64835 | 27172 ft | 361 kts | 66° |
| 2026-05-07 15:21 | 27.27104 | -144.62237 | 27172 ft | 361 kts | 66° |
| 2026-05-07 15:22 | 27.28092 | -144.59643 | 27169 ft | 361 kts | 66° |
| 2026-05-07 15:22 | 27.29080 | -144.57045 | 27171 ft | 361 kts | 66° |
| 2026-05-07 15:22 | 27.30066 | -144.54454 | 27181 ft | 361 kts | 66° |
| 2026-05-07 15:22 | 27.31055 | -144.51851 | 27173 ft | 362 kts | 66° |
| 2026-05-07 15:23 | 27.32041 | -144.49253 | 27167 ft | 362 kts | 66° |
| 2026-05-07 15:23 | 27.33029 | -144.46652 | 27174 ft | 361 kts | 66° |
| 2026-05-07 15:23 | 27.34014 | -144.44055 | 27175 ft | 361 kts | 66° |
| 2026-05-07 15:23 | 27.34999 | -144.41455 | 27174 ft | 361 kts | 66° |
| 2026-05-07 15:24 | 27.35982 | -144.38859 | 27175 ft | 361 kts | 66° |
| 2026-05-07 15:24 | 27.36966 | -144.36259 | 27175 ft | 361 kts | 66° |
| 2026-05-07 15:24 | 27.37951 | -144.33657 | 27174 ft | 361 kts | 66° |
| 2026-05-07 15:24 | 27.38932 | -144.31061 | 27175 ft | 361 kts | 66° |
| 2026-05-07 15:25 | 27.39913 | -144.28462 | 27173 ft | 361 kts | 66° |
| 2026-05-07 15:25 | 27.40895 | -144.25862 | 27175 ft | 361 kts | 66° |
| 2026-05-07 15:25 | 27.41875 | -144.23263 | 27174 ft | 361 kts | 66° |
| 2026-05-07 15:25 | 27.42854 | -144.20667 | 27175 ft | 360 kts | 66° |
| 2026-05-07 15:26 | 27.43830 | -144.18076 | 27181 ft | 361 kts | 66° |
| 2026-05-07 15:26 | 27.44812 | -144.15470 | 27174 ft | 361 kts | 66° |
| 2026-05-07 15:26 | 27.45778 | -144.12902 | 27180 ft | 361 kts | 66° |
| 2026-05-07 15:26 | 27.46756 | -144.10300 | 27180 ft | 361 kts | 66° |
| 2026-05-07 15:27 | 27.47735 | -144.07694 | 27180 ft | 361 kts | 66° |
| 2026-05-07 15:27 | 27.48713 | -144.05089 | 27177 ft | 361 kts | 66° |
| 2026-05-07 15:27 | 27.49690 | -144.02485 | 27180 ft | 361 kts | 66° |
| 2026-05-07 15:27 | 27.50667 | -143.99881 | 27179 ft | 361 kts | 66° |
| 2026-05-07 15:28 | 27.51645 | -143.97270 | 27178 ft | 361 kts | 66° |
| 2026-05-07 15:28 | 27.52620 | -143.94666 | 27179 ft | 360 kts | 66° |
| 2026-05-07 15:28 | 27.53593 | -143.92065 | 27183 ft | 360 kts | 66° |
| 2026-05-07 15:28 | 27.54565 | -143.89465 | 27182 ft | 360 kts | 66° |
| 2026-05-07 15:29 | 27.55537 | -143.86864 | 27182 ft | 360 kts | 66° |
| 2026-05-07 15:29 | 27.56509 | -143.84263 | 27182 ft | 360 kts | 66° |
| 2026-05-07 15:29 | 27.57481 | -143.81657 | 27188 ft | 360 kts | 66° |
| 2026-05-07 15:29 | 27.58452 | -143.79052 | 27182 ft | 361 kts | 66° |
| 2026-05-07 15:30 | 27.59424 | -143.76445 | 27182 ft | 361 kts | 66° |
| 2026-05-07 15:30 | 27.60396 | -143.73835 | 27183 ft | 361 kts | 66° |
| 2026-05-07 15:30 | 27.61369 | -143.71220 | 27181 ft | 361 kts | 66° |
| 2026-05-07 15:30 | 27.62328 | -143.68642 | 27183 ft | 361 kts | 66° |
| 2026-05-07 15:31 | 27.63298 | -143.66032 | 27185 ft | 361 kts | 66° |
| 2026-05-07 15:31 | 27.64267 | -143.63423 | 27182 ft | 361 kts | 66° |
| 2026-05-07 15:31 | 27.65235 | -143.60816 | 27182 ft | 360 kts | 66° |
| 2026-05-07 15:31 | 27.66206 | -143.58198 | 27183 ft | 360 kts | 66° |
| 2026-05-07 15:32 | 27.67172 | -143.55590 | 27181 ft | 360 kts | 66° |
| 2026-05-07 15:32 | 27.68139 | -143.52980 | 27186 ft | 360 kts | 66° |
| 2026-05-07 15:32 | 27.69104 | -143.50373 | 27184 ft | 360 kts | 66° |
| 2026-05-07 15:32 | 27.70069 | -143.47764 | 27185 ft | 360 kts | 66° |
| 2026-05-07 15:33 | 27.71033 | -143.45155 | 27188 ft | 361 kts | 66° |
| 2026-05-07 15:33 | 27.71998 | -143.42544 | 27189 ft | 361 kts | 66° |
| 2026-05-07 15:33 | 27.72964 | -143.39926 | 27189 ft | 361 kts | 66° |
| 2026-05-07 15:33 | 27.73930 | -143.37307 | 27188 ft | 361 kts | 66° |
| 2026-05-07 15:34 | 27.74895 | -143.34691 | 27187 ft | 361 kts | 66° |
| 2026-05-07 15:34 | 27.75861 | -143.32068 | 27188 ft | 361 kts | 66° |
| 2026-05-07 15:34 | 27.76826 | -143.29447 | 27188 ft | 361 kts | 66° |
| 2026-05-07 15:34 | 27.77789 | -143.26829 | 27188 ft | 362 kts | 66° |
| 2026-05-07 15:35 | 27.78753 | -143.24207 | 27188 ft | 361 kts | 66° |
| 2026-05-07 15:35 | 27.79715 | -143.21587 | 27190 ft | 361 kts | 66° |
| 2026-05-07 15:35 | 27.80678 | -143.18963 | 27191 ft | 361 kts | 66° |
| 2026-05-07 15:35 | 27.81639 | -143.16344 | 27191 ft | 361 kts | 66° |
| 2026-05-07 15:36 | 27.82598 | -143.13728 | 27190 ft | 361 kts | 66° |
| 2026-05-07 15:36 | 27.83545 | -143.11143 | 27199 ft | 361 kts | 66° |
| 2026-05-07 15:36 | 27.84504 | -143.08522 | 27192 ft | 361 kts | 66° |
| 2026-05-07 15:36 | 27.85465 | -143.05895 | 27191 ft | 362 kts | 66° |
| 2026-05-07 15:37 | 27.86426 | -143.03266 | 27192 ft | 362 kts | 66° |
| 2026-05-07 15:37 | 27.87398 | -143.00606 | 27184 ft | 362 kts | 66° |
| 2026-05-07 15:37 | 27.88346 | -142.98010 | 27189 ft | 361 kts | 66° |
| 2026-05-07 15:37 | 27.89304 | -142.95384 | 27190 ft | 361 kts | 66° |
| 2026-05-07 15:38 | 27.90261 | -142.92758 | 27191 ft | 361 kts | 66° |
| 2026-05-07 15:38 | 27.91217 | -142.90134 | 27191 ft | 361 kts | 66° |
| 2026-05-07 15:38 | 27.92172 | -142.87510 | 27190 ft | 361 kts | 66° |
| 2026-05-07 15:38 | 27.93125 | -142.84890 | 27196 ft | 361 kts | 66° |
| 2026-05-07 15:39 | 27.94080 | -142.82263 | 27196 ft | 361 kts | 66° |
| 2026-05-07 15:39 | 27.95032 | -142.79642 | 27196 ft | 361 kts | 66° |
| 2026-05-07 15:39 | 27.95984 | -142.77019 | 27200 ft | 360 kts | 66° |
| 2026-05-07 15:39 | 27.96937 | -142.74392 | 27198 ft | 361 kts | 66° |
| 2026-05-07 15:40 | 27.97888 | -142.71769 | 27198 ft | 361 kts | 66° |
| 2026-05-07 15:40 | 27.98839 | -142.69144 | 27199 ft | 361 kts | 66° |
| 2026-05-07 15:40 | 27.99789 | -142.66519 | 27199 ft | 361 kts | 66° |
| 2026-05-07 15:40 | 28.00740 | -142.63890 | 27199 ft | 361 kts | 66° |
| 2026-05-07 15:41 | 28.01689 | -142.61265 | 27200 ft | 361 kts | 66° |
| 2026-05-07 15:41 | 28.02639 | -142.58635 | 27199 ft | 361 kts | 66° |
| 2026-05-07 15:41 | 28.03575 | -142.56041 | 27199 ft | 361 kts | 66° |
| 2026-05-07 15:41 | 28.04524 | -142.53409 | 27199 ft | 361 kts | 66° |
| 2026-05-07 15:42 | 28.05472 | -142.50782 | 27194 ft | 360 kts | 66° |
| 2026-05-07 15:42 | 28.06419 | -142.48152 | 27199 ft | 360 kts | 66° |
| 2026-05-07 15:42 | 28.07363 | -142.45527 | 27199 ft | 360 kts | 66° |
| 2026-05-07 15:42 | 28.08305 | -142.42909 | 27199 ft | 360 kts | 66° |
| 2026-05-07 15:43 | 28.09249 | -142.40283 | 27200 ft | 359 kts | 66° |
| 2026-05-07 15:43 | 28.10192 | -142.37659 | 27202 ft | 359 kts | 66° |
| 2026-05-07 15:43 | 28.11132 | -142.35039 | 27202 ft | 359 kts | 66° |
| 2026-05-07 15:43 | 28.12072 | -142.32417 | 27202 ft | 359 kts | 66° |
| 2026-05-07 15:44 | 28.13011 | -142.29798 | 27201 ft | 359 kts | 66° |
| 2026-05-07 15:44 | 28.13949 | -142.27178 | 27204 ft | 359 kts | 66° |
| 2026-05-07 15:44 | 28.14887 | -142.24558 | 27205 ft | 359 kts | 66° |
| 2026-05-07 15:44 | 28.15825 | -142.21936 | 27204 ft | 358 kts | 66° |
| 2026-05-07 15:45 | 28.16759 | -142.19321 | 27203 ft | 358 kts | 66° |
| 2026-05-07 15:45 | 28.17695 | -142.16703 | 27207 ft | 358 kts | 66° |
| 2026-05-07 15:45 | 28.18628 | -142.14088 | 27207 ft | 358 kts | 66° |
| 2026-05-07 15:45 | 28.19562 | -142.11470 | 27207 ft | 358 kts | 66° |
| 2026-05-07 15:46 | 28.21424 | -142.06242 | 27210 ft | 358 kts | 67° |
| 2026-05-07 15:46 | 28.22358 | -142.03618 | 27204 ft | 358 kts | 67° |
| 2026-05-07 15:46 | 28.23278 | -142.01031 | 27207 ft | 358 kts | 67° |
| 2026-05-07 15:47 | 28.24207 | -141.98416 | 27207 ft | 358 kts | 67° |
| 2026-05-07 15:47 | 28.25138 | -141.95796 | 27207 ft | 358 kts | 67° |
| 2026-05-07 15:47 | 28.26068 | -141.93176 | 27207 ft | 358 kts | 67° |
| 2026-05-07 15:47 | 28.26996 | -141.90556 | 27207 ft | 358 kts | 67° |
| 2026-05-07 15:48 | 28.27925 | -141.87937 | 27206 ft | 358 kts | 67° |
| 2026-05-07 15:48 | 28.28853 | -141.85316 | 27207 ft | 358 kts | 67° |
| 2026-05-07 15:48 | 28.29780 | -141.82697 | 27207 ft | 358 kts | 67° |
| 2026-05-07 15:48 | 28.30706 | -141.80078 | 27209 ft | 358 kts | 67° |
| 2026-05-07 15:49 | 28.31632 | -141.77456 | 27213 ft | 358 kts | 67° |
| 2026-05-07 15:49 | 28.32557 | -141.74836 | 27212 ft | 358 kts | 67° |
| 2026-05-07 15:49 | 28.33482 | -141.72216 | 27217 ft | 358 kts | 67° |
| 2026-05-07 15:49 | 28.34407 | -141.69591 | 27212 ft | 358 kts | 67° |
| 2026-05-07 15:50 | 28.35331 | -141.66968 | 27212 ft | 358 kts | 67° |
| 2026-05-07 15:50 | 28.36256 | -141.64343 | 27212 ft | 358 kts | 67° |
| 2026-05-07 15:50 | 28.37180 | -141.61715 | 27212 ft | 358 kts | 67° |
| 2026-05-07 15:50 | 28.38102 | -141.59092 | 27213 ft | 358 kts | 67° |
| 2026-05-07 15:51 | 28.39025 | -141.56465 | 27211 ft | 358 kts | 67° |
| 2026-05-07 15:51 | 28.39947 | -141.53839 | 27213 ft | 358 kts | 67° |
| 2026-05-07 15:51 | 28.40868 | -141.51214 | 27216 ft | 358 kts | 67° |
| 2026-05-07 15:51 | 28.41789 | -141.48585 | 27215 ft | 358 kts | 67° |
| 2026-05-07 15:52 | 28.42710 | -141.45958 | 27218 ft | 358 kts | 67° |
| 2026-05-07 15:52 | 28.43631 | -141.43328 | 27218 ft | 358 kts | 67° |
| 2026-05-07 15:52 | 28.44551 | -141.40696 | 27217 ft | 358 kts | 67° |
| 2026-05-07 15:52 | 28.45458 | -141.38103 | 27218 ft | 358 kts | 67° |
| 2026-05-07 15:53 | 28.46390 | -141.35434 | 27215 ft | 358 kts | 67° |
| 2026-05-07 15:53 | 28.47297 | -141.32834 | 27215 ft | 359 kts | 67° |
| 2026-05-07 15:53 | 28.48216 | -141.30198 | 27218 ft | 358 kts | 67° |
| 2026-05-07 15:53 | 28.49134 | -141.27565 | 27218 ft | 358 kts | 67° |
| 2026-05-07 15:54 | 28.50052 | -141.24931 | 27219 ft | 358 kts | 67° |
| 2026-05-07 15:54 | 28.50968 | -141.22298 | 27221 ft | 358 kts | 67° |
| 2026-05-07 15:54 | 28.51575 | -141.20552 | 27221 ft | 359 kts | 67° |
| 2026-05-07 15:54 | 28.52492 | -141.17915 | 27221 ft | 359 kts | 67° |
| 2026-05-07 15:55 | 28.53409 | -141.15275 | 27222 ft | 359 kts | 67° |
| 2026-05-07 15:55 | 28.54324 | -141.12636 | 27220 ft | 359 kts | 68° |
| 2026-05-07 15:55 | 28.55239 | -141.09998 | 27220 ft | 359 kts | 68° |
| 2026-05-07 15:55 | 28.56153 | -141.07361 | 27220 ft | 359 kts | 68° |
| 2026-05-07 15:56 | 28.57068 | -141.04721 | 27225 ft | 359 kts | 68° |
| 2026-05-07 15:56 | 28.57984 | -141.02074 | 27222 ft | 359 kts | 68° |
| 2026-05-07 15:56 | 28.58898 | -140.99431 | 27221 ft | 359 kts | 68° |
| 2026-05-07 15:56 | 28.59813 | -140.96783 | 27223 ft | 360 kts | 68° |
| 2026-05-07 15:57 | 28.60727 | -140.94135 | 27223 ft | 360 kts | 68° |
| 2026-05-07 15:57 | 28.61641 | -140.91487 | 27222 ft | 360 kts | 68° |
| 2026-05-07 15:57 | 28.62554 | -140.88838 | 27223 ft | 360 kts | 68° |
| 2026-05-07 15:57 | 28.63469 | -140.86183 | 27219 ft | 360 kts | 68° |
| 2026-05-07 15:58 | 28.64382 | -140.83531 | 27224 ft | 359 kts | 68° |
| 2026-05-07 15:58 | 28.65293 | -140.80883 | 27224 ft | 359 kts | 68° |
| 2026-05-07 15:58 | 28.66205 | -140.78230 | 27226 ft | 359 kts | 68° |
| 2026-05-07 15:58 | 28.67114 | -140.75583 | 27226 ft | 359 kts | 68° |
| 2026-05-07 15:59 | 28.68021 | -140.72940 | 27226 ft | 359 kts | 68° |
| 2026-05-07 15:59 | 28.68931 | -140.70286 | 27224 ft | 359 kts | 68° |
| 2026-05-07 15:59 | 28.69841 | -140.67633 | 27226 ft | 360 kts | 68° |
| 2026-05-07 15:59 | 28.70751 | -140.64976 | 27230 ft | 360 kts | 68° |
| 2026-05-07 16:00 | 28.71660 | -140.62320 | 27225 ft | 360 kts | 68° |
| 2026-05-07 16:00 | 28.72567 | -140.59668 | 27232 ft | 359 kts | 68° |
| 2026-05-07 16:00 | 28.73473 | -140.57017 | 27231 ft | 359 kts | 68° |
| 2026-05-07 16:00 | 28.74379 | -140.54362 | 27231 ft | 359 kts | 68° |
| 2026-05-07 16:01 | 28.75284 | -140.51712 | 27232 ft | 359 kts | 68° |
| 2026-05-07 16:01 | 28.76189 | -140.49056 | 27232 ft | 359 kts | 68° |
| 2026-05-07 16:01 | 28.77093 | -140.46402 | 27230 ft | 359 kts | 68° |
| 2026-05-07 16:01 | 28.77997 | -140.43748 | 27232 ft | 359 kts | 68° |
| 2026-05-07 16:02 | 28.78888 | -140.41129 | 27227 ft | 359 kts | 68° |
| 2026-05-07 16:02 | 28.79788 | -140.38480 | 27236 ft | 359 kts | 68° |
| 2026-05-07 16:02 | 28.80689 | -140.35827 | 27233 ft | 359 kts | 68° |
| 2026-05-07 16:02 | 28.81590 | -140.33173 | 27231 ft | 359 kts | 68° |
| 2026-05-07 16:03 | 28.82490 | -140.30522 | 27233 ft | 359 kts | 68° |
| 2026-05-07 16:03 | 28.83390 | -140.27865 | 27233 ft | 359 kts | 68° |
| 2026-05-07 16:03 | 28.84289 | -140.25208 | 27234 ft | 359 kts | 68° |
| 2026-05-07 16:03 | 28.85188 | -140.22552 | 27236 ft | 359 kts | 68° |
| 2026-05-07 16:04 | 28.86085 | -140.19901 | 27236 ft | 359 kts | 68° |
| 2026-05-07 16:04 | 28.86982 | -140.17246 | 27236 ft | 358 kts | 68° |
| 2026-05-07 16:04 | 28.87877 | -140.14597 | 27237 ft | 358 kts | 68° |
| 2026-05-07 16:04 | 28.88771 | -140.11946 | 27237 ft | 358 kts | 68° |
| 2026-05-07 16:05 | 28.89663 | -140.09299 | 27237 ft | 358 kts | 68° |
| 2026-05-07 16:05 | 28.90555 | -140.06652 | 27241 ft | 358 kts | 68° |
| 2026-05-07 16:05 | 28.91448 | -140.04000 | 27237 ft | 358 kts | 68° |
| 2026-05-07 16:05 | 28.92341 | -140.01346 | 27235 ft | 358 kts | 68° |
| 2026-05-07 16:06 | 28.93232 | -139.98692 | 27239 ft | 358 kts | 68° |
| 2026-05-07 16:06 | 28.94112 | -139.96071 | 27239 ft | 358 kts | 68° |
| 2026-05-07 16:06 | 28.95004 | -139.93416 | 27240 ft | 358 kts | 68° |
| 2026-05-07 16:06 | 28.95904 | -139.90730 | 27240 ft | 358 kts | 68° |
| 2026-05-07 16:07 | 28.96782 | -139.88110 | 27244 ft | 358 kts | 68° |
| 2026-05-07 16:07 | 28.97671 | -139.85455 | 27238 ft | 357 kts | 68° |
| 2026-05-07 16:07 | 28.98557 | -139.82806 | 27239 ft | 357 kts | 68° |
| 2026-05-07 16:07 | 28.99445 | -139.80153 | 27242 ft | 357 kts | 68° |
| 2026-05-07 16:08 | 29.00329 | -139.77506 | 27243 ft | 357 kts | 68° |
| 2026-05-07 16:08 | 29.01215 | -139.74851 | 27248 ft | 357 kts | 68° |
| 2026-05-07 16:08 | 29.02100 | -139.72198 | 27247 ft | 357 kts | 68° |
| 2026-05-07 16:08 | 29.02983 | -139.69548 | 27243 ft | 357 kts | 68° |
| 2026-05-07 16:09 | 29.03865 | -139.66902 | 27246 ft | 357 kts | 68° |
| 2026-05-07 16:09 | 29.04748 | -139.64247 | 27246 ft | 357 kts | 68° |
| 2026-05-07 16:09 | 29.05629 | -139.61598 | 27243 ft | 357 kts | 68° |
| 2026-05-07 16:09 | 29.06510 | -139.58947 | 27243 ft | 357 kts | 68° |
| 2026-05-07 16:10 | 29.07388 | -139.56303 | 27246 ft | 356 kts | 68° |
| 2026-05-07 16:10 | 29.08268 | -139.53649 | 27243 ft | 356 kts | 68° |
| 2026-05-07 16:10 | 29.09145 | -139.51005 | 27242 ft | 356 kts | 68° |
| 2026-05-07 16:10 | 29.10023 | -139.48354 | 27247 ft | 356 kts | 68° |
| 2026-05-07 16:11 | 29.10898 | -139.45711 | 27250 ft | 356 kts | 68° |
| 2026-05-07 16:11 | 29.11774 | -139.43061 | 27248 ft | 356 kts | 68° |
| 2026-05-07 16:11 | 29.12648 | -139.40419 | 27255 ft | 356 kts | 68° |
| 2026-05-07 16:11 | 29.13525 | -139.37763 | 27247 ft | 356 kts | 68° |
| 2026-05-07 16:12 | 29.14401 | -139.35109 | 27246 ft | 356 kts | 68° |
| 2026-05-07 16:12 | 29.15265 | -139.32489 | 27246 ft | 356 kts | 68° |
| 2026-05-07 16:12 | 29.16138 | -139.29839 | 27241 ft | 356 kts | 68° |
| 2026-05-07 16:12 | 29.17011 | -139.27187 | 27247 ft | 356 kts | 68° |
| 2026-05-07 16:13 | 29.17883 | -139.24537 | 27247 ft | 356 kts | 68° |
| 2026-05-07 16:13 | 29.18754 | -139.21888 | 27251 ft | 356 kts | 68° |
| 2026-05-07 16:13 | 29.19624 | -139.19238 | 27247 ft | 356 kts | 68° |
| 2026-05-07 16:13 | 29.20495 | -139.16584 | 27253 ft | 356 kts | 68° |
| 2026-05-07 16:14 | 29.21378 | -139.13893 | 27253 ft | 356 kts | 68° |
| 2026-05-07 16:14 | 29.22245 | -139.11246 | 27249 ft | 356 kts | 68° |
| 2026-05-07 16:14 | 29.23114 | -139.08592 | 27254 ft | 356 kts | 68° |
| 2026-05-07 16:14 | 29.23982 | -139.05941 | 27256 ft | 355 kts | 68° |
| 2026-05-07 16:15 | 29.24848 | -139.03292 | 27251 ft | 355 kts | 68° |
| 2026-05-07 16:15 | 29.25713 | -139.00644 | 27252 ft | 355 kts | 68° |
| 2026-05-07 16:15 | 29.26576 | -138.97999 | 27253 ft | 355 kts | 68° |
| 2026-05-07 16:15 | 29.27440 | -138.95351 | 27253 ft | 355 kts | 68° |
| 2026-05-07 16:16 | 29.28302 | -138.92706 | 27249 ft | 355 kts | 68° |
| 2026-05-07 16:16 | 29.29163 | -138.90063 | 27251 ft | 354 kts | 68° |
| 2026-05-07 16:16 | 29.30014 | -138.87447 | 27253 ft | 354 kts | 68° |
| 2026-05-07 16:16 | 29.30874 | -138.84801 | 27253 ft | 354 kts | 68° |
| 2026-05-07 16:17 | 29.31734 | -138.82155 | 27257 ft | 354 kts | 68° |
| 2026-05-07 16:17 | 29.32594 | -138.79508 | 27263 ft | 354 kts | 68° |
| 2026-05-07 16:17 | 29.33455 | -138.76855 | 27260 ft | 355 kts | 68° |
| 2026-05-07 16:17 | 29.34314 | -138.74205 | 27254 ft | 355 kts | 68° |
| 2026-05-07 16:18 | 29.35174 | -138.71549 | 27253 ft | 355 kts | 68° |
| 2026-05-07 16:18 | 29.36032 | -138.68897 | 27253 ft | 355 kts | 68° |
| 2026-05-07 16:18 | 29.36893 | -138.66236 | 27255 ft | 356 kts | 68° |
| 2026-05-07 16:18 | 29.37752 | -138.63579 | 27250 ft | 355 kts | 68° |
| 2026-05-07 16:19 | 29.38609 | -138.60924 | 27256 ft | 355 kts | 68° |
| 2026-05-07 16:19 | 29.39456 | -138.58298 | 27257 ft | 355 kts | 68° |
| 2026-05-07 16:19 | 29.40312 | -138.55643 | 27258 ft | 355 kts | 68° |
| 2026-05-07 16:19 | 29.41166 | -138.52992 | 27257 ft | 355 kts | 68° |
| 2026-05-07 16:20 | 29.42021 | -138.50337 | 27262 ft | 355 kts | 68° |
| 2026-05-07 16:20 | 29.42874 | -138.47684 | 27264 ft | 355 kts | 68° |
| 2026-05-07 16:20 | 29.43729 | -138.45024 | 27261 ft | 355 kts | 68° |
| 2026-05-07 16:20 | 29.44582 | -138.42368 | 27264 ft | 355 kts | 68° |
| 2026-05-07 16:21 | 29.45435 | -138.39710 | 27261 ft | 355 kts | 68° |
| 2026-05-07 16:21 | 29.46288 | -138.37048 | 27257 ft | 355 kts | 68° |
| 2026-05-07 16:21 | 29.47139 | -138.34394 | 27257 ft | 355 kts | 68° |
| 2026-05-07 16:21 | 29.47988 | -138.31740 | 27258 ft | 355 kts | 68° |
| 2026-05-07 16:22 | 29.48838 | -138.29082 | 27263 ft | 355 kts | 68° |
| 2026-05-07 16:22 | 29.49688 | -138.26423 | 27259 ft | 354 kts | 68° |
| 2026-05-07 16:22 | 29.50537 | -138.23765 | 27259 ft | 354 kts | 68° |
| 2026-05-07 16:22 | 29.51384 | -138.21112 | 27260 ft | 354 kts | 68° |
| 2026-05-07 16:23 | 29.52231 | -138.18455 | 27264 ft | 354 kts | 68° |
| 2026-05-07 16:23 | 29.53075 | -138.15806 | 27264 ft | 354 kts | 68° |
| 2026-05-07 16:23 | 29.53919 | -138.13153 | 27262 ft | 354 kts | 68° |
| 2026-05-07 16:23 | 29.54765 | -138.10495 | 27269 ft | 354 kts | 68° |
| 2026-05-07 16:24 | 29.55610 | -138.07835 | 27267 ft | 354 kts | 68° |
| 2026-05-07 16:24 | 29.56443 | -138.05212 | 27262 ft | 354 kts | 68° |
| 2026-05-07 16:24 | 29.57287 | -138.02554 | 27264 ft | 354 kts | 68° |
| 2026-05-07 16:24 | 29.58130 | -137.99894 | 27270 ft | 354 kts | 68° |
| 2026-05-07 16:25 | 29.58972 | -137.97237 | 27266 ft | 354 kts | 68° |
| 2026-05-07 16:25 | 29.59812 | -137.94584 | 27264 ft | 353 kts | 68° |
| 2026-05-07 16:25 | 29.60651 | -137.91930 | 27267 ft | 353 kts | 68° |
| 2026-05-07 16:25 | 29.61489 | -137.89281 | 27268 ft | 353 kts | 68° |
| 2026-05-07 16:26 | 29.62325 | -137.86632 | 27275 ft | 352 kts | 68° |
| 2026-05-07 16:26 | 29.63162 | -137.83980 | 27267 ft | 353 kts | 68° |
| 2026-05-07 16:26 | 29.63998 | -137.81330 | 27267 ft | 353 kts | 68° |
| 2026-05-07 16:26 | 29.64552 | -137.79570 | 27270 ft | 353 kts | 68° |
| 2026-05-07 16:27 | 29.65670 | -137.76018 | 27265 ft | 353 kts | 68° |
| 2026-05-07 16:27 | 29.66503 | -137.73370 | 27265 ft | 353 kts | 68° |
| 2026-05-07 16:27 | 29.67337 | -137.70718 | 27264 ft | 352 kts | 68° |
| 2026-05-07 16:27 | 29.68169 | -137.68070 | 27267 ft | 352 kts | 68° |
| 2026-05-07 16:28 | 29.68999 | -137.65423 | 27273 ft | 352 kts | 68° |
| 2026-05-07 16:28 | 29.69830 | -137.62774 | 27272 ft | 352 kts | 68° |
| 2026-05-07 16:28 | 29.70661 | -137.60122 | 27269 ft | 352 kts | 68° |
| 2026-05-07 16:28 | 29.71489 | -137.57476 | 27267 ft | 351 kts | 69° |
| 2026-05-07 16:29 | 29.72314 | -137.54837 | 27271 ft | 351 kts | 69° |
| 2026-05-07 16:29 | 29.73140 | -137.52196 | 27267 ft | 351 kts | 69° |
| 2026-05-07 16:29 | 29.73964 | -137.49555 | 27267 ft | 351 kts | 69° |
| 2026-05-07 16:29 | 29.74789 | -137.46913 | 27270 ft | 351 kts | 69° |
| 2026-05-07 16:30 | 29.75612 | -137.44273 | 27273 ft | 351 kts | 69° |
| 2026-05-07 16:30 | 29.76435 | -137.41630 | 27270 ft | 351 kts | 69° |
| 2026-05-07 16:30 | 29.77257 | -137.38990 | 27272 ft | 351 kts | 69° |
| 2026-05-07 16:30 | 29.78080 | -137.36343 | 27272 ft | 350 kts | 69° |
| 2026-05-07 16:31 | 29.78899 | -137.33709 | 27271 ft | 350 kts | 69° |
| 2026-05-07 16:31 | 29.79708 | -137.31105 | 27270 ft | 349 kts | 69° |
| 2026-05-07 16:31 | 29.80525 | -137.28470 | 27272 ft | 349 kts | 69° |
| 2026-05-07 16:31 | 29.81341 | -137.25839 | 27280 ft | 349 kts | 69° |
| 2026-05-07 16:32 | 29.82158 | -137.23203 | 27275 ft | 349 kts | 69° |
| 2026-05-07 16:32 | 29.82974 | -137.20567 | 27275 ft | 349 kts | 69° |
| 2026-05-07 16:32 | 29.83787 | -137.17936 | 27278 ft | 349 kts | 69° |
| 2026-05-07 16:32 | 29.84602 | -137.15300 | 27276 ft | 349 kts | 69° |
| 2026-05-07 16:33 | 29.85415 | -137.12668 | 27281 ft | 349 kts | 69° |
| 2026-05-07 16:33 | 29.86227 | -137.10036 | 27275 ft | 349 kts | 69° |
| 2026-05-07 16:33 | 29.87038 | -137.07405 | 27275 ft | 348 kts | 69° |
| 2026-05-07 16:33 | 29.87848 | -137.04774 | 27279 ft | 348 kts | 69° |
| 2026-05-07 16:34 | 29.88657 | -137.02146 | 27275 ft | 348 kts | 69° |
| 2026-05-07 16:34 | 29.89467 | -136.99512 | 27278 ft | 348 kts | 69° |
| 2026-05-07 16:34 | 29.90265 | -136.96915 | 27271 ft | 348 kts | 69° |
| 2026-05-07 16:34 | 29.91082 | -136.94255 | 27273 ft | 348 kts | 69° |
| 2026-05-07 16:35 | 29.91878 | -136.91659 | 27279 ft | 348 kts | 69° |
| 2026-05-07 16:35 | 29.92685 | -136.89027 | 27279 ft | 348 kts | 69° |
| 2026-05-07 16:35 | 29.93492 | -136.86392 | 27280 ft | 349 kts | 69° |
| 2026-05-07 16:35 | 29.94299 | -136.83756 | 27279 ft | 349 kts | 69° |
| 2026-05-07 16:36 | 29.95106 | -136.81117 | 27279 ft | 349 kts | 69° |
| 2026-05-07 16:36 | 29.95912 | -136.78477 | 27277 ft | 349 kts | 69° |
| 2026-05-07 16:36 | 29.96718 | -136.75838 | 27280 ft | 349 kts | 69° |
| 2026-05-07 16:36 | 29.97523 | -136.73199 | 27280 ft | 349 kts | 69° |
| 2026-05-07 16:37 | 29.98328 | -136.70557 | 27283 ft | 349 kts | 69° |
| 2026-05-07 16:37 | 29.99133 | -136.67916 | 27283 ft | 349 kts | 69° |
| 2026-05-07 16:37 | 29.99938 | -136.65268 | 27281 ft | 350 kts | 69° |
| 2026-05-07 16:37 | 30.00745 | -136.62617 | 27278 ft | 351 kts | 69° |
| 2026-05-07 16:38 | 30.01553 | -136.59955 | 27281 ft | 351 kts | 69° |
| 2026-05-07 16:38 | 30.02360 | -136.57296 | 27281 ft | 351 kts | 69° |
| 2026-05-07 16:38 | 30.03168 | -136.54634 | 27282 ft | 351 kts | 69° |
| 2026-05-07 16:38 | 30.03973 | -136.51976 | 27281 ft | 351 kts | 69° |
| 2026-05-07 16:39 | 30.04779 | -136.49316 | 27286 ft | 351 kts | 69° |
| 2026-05-07 16:39 | 30.05582 | -136.46661 | 27281 ft | 350 kts | 69° |
| 2026-05-07 16:39 | 30.06385 | -136.44005 | 27281 ft | 350 kts | 69° |
| 2026-05-07 16:39 | 30.07185 | -136.41354 | 27282 ft | 350 kts | 69° |
| 2026-05-07 16:40 | 30.07987 | -136.38698 | 27281 ft | 350 kts | 69° |
| 2026-05-07 16:40 | 30.08788 | -136.36042 | 27280 ft | 350 kts | 69° |
| 2026-05-07 16:40 | 30.09588 | -136.33388 | 27284 ft | 350 kts | 69° |
| 2026-05-07 16:40 | 30.10387 | -136.30731 | 27281 ft | 350 kts | 69° |
| 2026-05-07 16:41 | 30.11185 | -136.28079 | 27285 ft | 350 kts | 69° |
| 2026-05-07 16:41 | 30.11973 | -136.25456 | 27281 ft | 350 kts | 69° |
| 2026-05-07 16:41 | 30.12770 | -136.22800 | 27288 ft | 350 kts | 69° |
| 2026-05-07 16:41 | 30.13566 | -136.20147 | 27283 ft | 350 kts | 69° |
| 2026-05-07 16:42 | 30.14362 | -136.17494 | 27280 ft | 350 kts | 69° |
| 2026-05-07 16:42 | 30.15156 | -136.14843 | 27281 ft | 349 kts | 69° |
| 2026-05-07 16:42 | 30.15692 | -136.13052 | 27283 ft | 349 kts | 69° |
| 2026-05-07 16:42 | 30.16741 | -136.09546 | 27284 ft | 349 kts | 69° |
| 2026-05-07 16:43 | 30.17275 | -136.07758 | 27286 ft | 348 kts | 69° |
| 2026-05-07 16:43 | 30.18065 | -136.05113 | 27284 ft | 348 kts | 69° |
| 2026-05-07 16:43 | 30.18855 | -136.02465 | 27283 ft | 348 kts | 69° |
| 2026-05-07 16:43 | 30.19643 | -135.99820 | 27285 ft | 348 kts | 69° |
| 2026-05-07 16:44 | 30.20431 | -135.97177 | 27285 ft | 348 kts | 69° |
| 2026-05-07 16:44 | 30.21217 | -135.94534 | 27284 ft | 348 kts | 69° |
| 2026-05-07 16:44 | 30.21994 | -135.91920 | 27286 ft | 347 kts | 69° |
| 2026-05-07 16:44 | 30.22778 | -135.89281 | 27288 ft | 347 kts | 69° |
| 2026-05-07 16:45 | 30.23564 | -135.86636 | 27283 ft | 347 kts | 69° |
| 2026-05-07 16:45 | 30.24347 | -135.83994 | 27289 ft | 347 kts | 69° |
| 2026-05-07 16:45 | 30.25128 | -135.81360 | 27288 ft | 347 kts | 69° |
| 2026-05-07 16:45 | 30.25910 | -135.78718 | 27289 ft | 347 kts | 69° |
| 2026-05-07 16:46 | 30.26692 | -135.76076 | 27289 ft | 347 kts | 69° |
| 2026-05-07 16:46 | 30.27473 | -135.73435 | 27286 ft | 347 kts | 69° |
| 2026-05-07 16:46 | 30.28252 | -135.70795 | 27287 ft | 347 kts | 69° |
| 2026-05-07 16:46 | 30.29031 | -135.68157 | 27286 ft | 347 kts | 69° |
| 2026-05-07 16:47 | 30.29811 | -135.65512 | 27286 ft | 347 kts | 69° |
| 2026-05-07 16:47 | 30.30588 | -135.62874 | 27288 ft | 347 kts | 69° |
| 2026-05-07 16:47 | 30.31365 | -135.60235 | 27289 ft | 347 kts | 69° |
| 2026-05-07 16:47 | 30.32142 | -135.57594 | 27291 ft | 346 kts | 69° |
| 2026-05-07 16:48 | 30.32919 | -135.54951 | 27286 ft | 346 kts | 69° |
| 2026-05-07 16:48 | 30.33693 | -135.52315 | 27292 ft | 346 kts | 69° |
| 2026-05-07 16:48 | 30.34467 | -135.49676 | 27293 ft | 346 kts | 69° |
| 2026-05-07 16:48 | 30.35242 | -135.47031 | 27290 ft | 347 kts | 69° |
| 2026-05-07 16:49 | 30.36016 | -135.44389 | 27290 ft | 347 kts | 69° |
| 2026-05-07 16:49 | 30.36788 | -135.41752 | 27292 ft | 347 kts | 69° |
| 2026-05-07 16:49 | 30.37562 | -135.39103 | 27295 ft | 347 kts | 69° |
| 2026-05-07 16:49 | 30.38334 | -135.36462 | 27291 ft | 346 kts | 69° |
| 2026-05-07 16:50 | 30.39095 | -135.33855 | 27289 ft | 346 kts | 69° |
| 2026-05-07 16:50 | 30.39865 | -135.31214 | 27293 ft | 346 kts | 69° |
| 2026-05-07 16:50 | 30.40633 | -135.28576 | 27292 ft | 346 kts | 69° |
| 2026-05-07 16:50 | 30.41401 | -135.25941 | 27291 ft | 345 kts | 69° |
| 2026-05-07 16:51 | 30.42168 | -135.23304 | 27298 ft | 346 kts | 69° |
| 2026-05-07 16:51 | 30.42936 | -135.20662 | 27296 ft | 346 kts | 69° |
| 2026-05-07 16:51 | 30.43703 | -135.18020 | 27297 ft | 346 kts | 69° |
| 2026-05-07 16:51 | 30.44470 | -135.15377 | 27295 ft | 346 kts | 69° |
| 2026-05-07 16:52 | 30.45236 | -135.12736 | 27295 ft | 346 kts | 69° |
| 2026-05-07 16:52 | 30.46001 | -135.10095 | 27295 ft | 345 kts | 69° |
| 2026-05-07 16:52 | 30.46764 | -135.07457 | 27292 ft | 345 kts | 69° |
| 2026-05-07 16:52 | 30.47526 | -135.04821 | 27298 ft | 345 kts | 69° |
| 2026-05-07 16:53 | 30.48291 | -135.02173 | 27292 ft | 345 kts | 69° |
| 2026-05-07 16:53 | 30.49053 | -134.99534 | 27299 ft | 345 kts | 69° |
| 2026-05-07 16:53 | 30.49813 | -134.96898 | 27294 ft | 345 kts | 69° |
| 2026-05-07 16:53 | 30.50574 | -134.94259 | 27291 ft | 345 kts | 69° |
| 2026-05-07 16:54 | 30.51333 | -134.91623 | 27294 ft | 344 kts | 69° |
| 2026-05-07 16:54 | 30.52090 | -134.88990 | 27299 ft | 344 kts | 69° |
| 2026-05-07 16:54 | 30.52848 | -134.86354 | 27296 ft | 344 kts | 69° |
| 2026-05-07 16:54 | 30.53604 | -134.83722 | 27297 ft | 344 kts | 69° |
| 2026-05-07 16:55 | 30.54361 | -134.81085 | 27291 ft | 344 kts | 69° |
| 2026-05-07 16:55 | 30.55117 | -134.78448 | 27297 ft | 344 kts | 69° |
| 2026-05-07 16:55 | 30.55871 | -134.75816 | 27295 ft | 344 kts | 69° |
| 2026-05-07 16:55 | 30.56626 | -134.73176 | 27299 ft | 344 kts | 69° |
| 2026-05-07 16:56 | 30.57380 | -134.70540 | 27298 ft | 344 kts | 69° |
| 2026-05-07 16:56 | 30.58134 | -134.67900 | 27303 ft | 344 kts | 69° |
| 2026-05-07 16:56 | 30.59640 | -134.62623 | 27299 ft | 344 kts | 69° |
| 2026-05-07 16:57 | 30.60392 | -134.59984 | 27304 ft | 344 kts | 69° |
| 2026-05-07 16:57 | 30.61144 | -134.57342 | 27293 ft | 344 kts | 69° |
| 2026-05-07 16:57 | 30.61896 | -134.54700 | 27302 ft | 345 kts | 69° |
| 2026-05-07 16:57 | 30.62646 | -134.52059 | 27305 ft | 345 kts | 69° |
| 2026-05-07 16:58 | 30.63397 | -134.49417 | 27302 ft | 345 kts | 69° |
| 2026-05-07 16:58 | 30.64146 | -134.46776 | 27302 ft | 345 kts | 69° |
| 2026-05-07 16:58 | 30.64886 | -134.44165 | 27296 ft | 345 kts | 69° |
| 2026-05-07 16:58 | 30.65645 | -134.41486 | 27307 ft | 345 kts | 69° |
| 2026-05-07 16:59 | 30.66382 | -134.38879 | 27303 ft | 345 kts | 69° |
| 2026-05-07 16:59 | 30.67140 | -134.36201 | 27303 ft | 344 kts | 69° |
| 2026-05-07 16:59 | 30.67877 | -134.33592 | 27299 ft | 344 kts | 69° |
| 2026-05-07 16:59 | 30.68623 | -134.30946 | 27306 ft | 344 kts | 69° |
| 2026-05-07 17:00 | 30.69368 | -134.28306 | 27302 ft | 344 kts | 69° |
| 2026-05-07 17:00 | 30.70113 | -134.25664 | 27314 ft | 344 kts | 69° |
| 2026-05-07 17:00 | 30.70856 | -134.23022 | 27312 ft | 344 kts | 69° |
| 2026-05-07 17:00 | 30.71598 | -134.20384 | 27304 ft | 344 kts | 69° |
| 2026-05-07 17:01 | 30.72341 | -134.17738 | 27309 ft | 344 kts | 69° |
| 2026-05-07 17:01 | 30.73084 | -134.15092 | 27302 ft | 344 kts | 69° |
| 2026-05-07 17:01 | 30.73825 | -134.12454 | 27307 ft | 343 kts | 69° |
| 2026-05-07 17:01 | 30.74564 | -134.09818 | 27302 ft | 343 kts | 69° |
| 2026-05-07 17:02 | 30.75302 | -134.07180 | 27306 ft | 343 kts | 69° |
| 2026-05-07 17:02 | 30.76040 | -134.04541 | 27307 ft | 343 kts | 69° |
| 2026-05-07 17:02 | 30.76777 | -134.01906 | 27310 ft | 343 kts | 69° |
| 2026-05-07 17:02 | 30.77512 | -133.99273 | 27302 ft | 343 kts | 69° |
| 2026-05-07 17:03 | 30.78249 | -133.96634 | 27302 ft | 343 kts | 69° |
| 2026-05-07 17:03 | 30.78983 | -133.93999 | 27304 ft | 343 kts | 69° |
| 2026-05-07 17:03 | 30.79717 | -133.91365 | 27304 ft | 342 kts | 69° |
| 2026-05-07 17:03 | 30.80450 | -133.88730 | 27307 ft | 342 kts | 69° |
| 2026-05-07 17:04 | 30.81183 | -133.86095 | 27305 ft | 342 kts | 69° |
| 2026-05-07 17:04 | 30.81914 | -133.83464 | 27309 ft | 342 kts | 69° |
| 2026-05-07 17:04 | 30.82647 | -133.80825 | 27312 ft | 342 kts | 69° |
| 2026-05-07 17:04 | 30.83376 | -133.78194 | 27307 ft | 342 kts | 69° |
| 2026-05-07 17:05 | 30.84106 | -133.75561 | 27307 ft | 342 kts | 69° |
| 2026-05-07 17:05 | 30.84834 | -133.72930 | 27307 ft | 341 kts | 69° |
| 2026-05-07 17:05 | 30.85561 | -133.70300 | 27305 ft | 341 kts | 69° |
| 2026-05-07 17:05 | 30.86276 | -133.67713 | 27309 ft | 340 kts | 69° |
| 2026-05-07 17:06 | 30.86999 | -133.65092 | 27312 ft | 340 kts | 69° |
| 2026-05-07 17:06 | 30.87722 | -133.62474 | 27320 ft | 340 kts | 69° |
| 2026-05-07 17:06 | 30.88444 | -133.59856 | 27310 ft | 340 kts | 69° |
| 2026-05-07 17:06 | 30.89165 | -133.57237 | 27311 ft | 340 kts | 69° |
| 2026-05-07 17:07 | 30.89886 | -133.54614 | 27311 ft | 339 kts | 69° |
| 2026-05-07 17:07 | 30.90605 | -133.51999 | 27312 ft | 339 kts | 69° |
| 2026-05-07 17:07 | 30.91323 | -133.49385 | 27310 ft | 339 kts | 69° |
| 2026-05-07 17:07 | 30.92041 | -133.46769 | 27309 ft | 339 kts | 69° |
| 2026-05-07 17:08 | 30.92757 | -133.44158 | 27316 ft | 339 kts | 69° |
| 2026-05-07 17:08 | 30.93474 | -133.41540 | 27320 ft | 339 kts | 69° |
| 2026-05-07 17:08 | 30.94190 | -133.38922 | 27312 ft | 339 kts | 69° |
| 2026-05-07 17:08 | 30.94905 | -133.36308 | 27308 ft | 339 kts | 69° |
| 2026-05-07 17:09 | 30.95620 | -133.33690 | 27312 ft | 339 kts | 69° |
| 2026-05-07 17:09 | 30.96333 | -133.31078 | 27312 ft | 339 kts | 69° |
| 2026-05-07 17:09 | 30.97046 | -133.28465 | 27315 ft | 339 kts | 69° |
| 2026-05-07 17:09 | 30.97755 | -133.25863 | 27317 ft | 339 kts | 69° |
| 2026-05-07 17:10 | 30.98466 | -133.23251 | 27314 ft | 339 kts | 69° |
| 2026-05-07 17:10 | 30.99177 | -133.20634 | 27319 ft | 339 kts | 69° |
| 2026-05-07 17:10 | 30.99888 | -133.18019 | 27315 ft | 339 kts | 69° |
| 2026-05-07 17:10 | 31.00599 | -133.15401 | 27317 ft | 338 kts | 69° |
| 2026-05-07 17:11 | 31.01308 | -133.12786 | 27318 ft | 338 kts | 69° |
| 2026-05-07 17:11 | 31.02017 | -133.10170 | 27317 ft | 338 kts | 69° |
| 2026-05-07 17:11 | 31.02726 | -133.07550 | 27315 ft | 339 kts | 69° |
| 2026-05-07 17:11 | 31.03433 | -133.04935 | 27314 ft | 339 kts | 69° |
| 2026-05-07 17:12 | 31.04141 | -133.02316 | 27324 ft | 338 kts | 69° |
| 2026-05-07 17:12 | 31.04848 | -132.99697 | 27321 ft | 339 kts | 69° |
| 2026-05-07 17:12 | 31.05554 | -132.97079 | 27318 ft | 339 kts | 69° |
| 2026-05-07 17:12 | 31.06252 | -132.94491 | 27317 ft | 339 kts | 69° |
| 2026-05-07 17:13 | 31.06967 | -132.91834 | 27319 ft | 339 kts | 69° |
| 2026-05-07 17:13 | 31.07663 | -132.89249 | 27317 ft | 339 kts | 69° |
| 2026-05-07 17:13 | 31.08367 | -132.86629 | 27317 ft | 339 kts | 69° |
| 2026-05-07 17:13 | 31.09070 | -132.84011 | 27319 ft | 339 kts | 69° |
| 2026-05-07 17:14 | 31.09774 | -132.81387 | 27319 ft | 339 kts | 69° |
| 2026-05-07 17:14 | 31.10476 | -132.78769 | 27319 ft | 339 kts | 69° |
| 2026-05-07 17:14 | 31.11179 | -132.76145 | 27319 ft | 339 kts | 69° |
| 2026-05-07 17:14 | 31.11882 | -132.73516 | 27317 ft | 339 kts | 69° |
| 2026-05-07 17:15 | 31.12583 | -132.70895 | 27316 ft | 339 kts | 69° |
| 2026-05-07 17:15 | 31.13283 | -132.68274 | 27319 ft | 338 kts | 69° |
| 2026-05-07 17:15 | 31.13984 | -132.65649 | 27318 ft | 339 kts | 69° |
| 2026-05-07 17:15 | 31.14683 | -132.63027 | 27320 ft | 339 kts | 69° |
| 2026-05-07 17:16 | 31.15382 | -132.60402 | 27324 ft | 339 kts | 69° |
| 2026-05-07 17:16 | 31.16081 | -132.57774 | 27319 ft | 339 kts | 69° |
| 2026-05-07 17:16 | 31.16779 | -132.55150 | 27317 ft | 339 kts | 69° |
| 2026-05-07 17:16 | 31.17478 | -132.52520 | 27319 ft | 339 kts | 69° |
| 2026-05-07 17:17 | 31.18176 | -132.49889 | 27319 ft | 339 kts | 69° |
| 2026-05-07 17:17 | 31.18874 | -132.47258 | 27319 ft | 339 kts | 69° |
| 2026-05-07 17:17 | 31.19570 | -132.44627 | 27319 ft | 339 kts | 69° |
| 2026-05-07 17:17 | 31.20267 | -132.41997 | 27319 ft | 339 kts | 69° |
| 2026-05-07 17:18 | 31.20963 | -132.39362 | 27324 ft | 339 kts | 69° |
| 2026-05-07 17:18 | 31.21658 | -132.36730 | 27319 ft | 339 kts | 69° |
| 2026-05-07 17:18 | 31.22345 | -132.34130 | 27318 ft | 339 kts | 69° |
| 2026-05-07 17:18 | 31.23039 | -132.31498 | 27315 ft | 339 kts | 69° |
| 2026-05-07 17:19 | 31.23732 | -132.28867 | 27313 ft | 339 kts | 69° |
| 2026-05-07 17:19 | 31.24424 | -132.26238 | 27320 ft | 339 kts | 69° |
| 2026-05-07 17:19 | 31.25116 | -132.23608 | 27319 ft | 339 kts | 69° |
| 2026-05-07 17:19 | 31.25807 | -132.20978 | 27318 ft | 339 kts | 69° |
| 2026-05-07 17:20 | 31.26498 | -132.18346 | 27322 ft | 339 kts | 69° |
| 2026-05-07 17:20 | 31.27188 | -132.15712 | 27318 ft | 339 kts | 69° |
| 2026-05-07 17:20 | 31.27878 | -132.13081 | 27317 ft | 339 kts | 69° |
| 2026-05-07 17:20 | 31.28567 | -132.10447 | 27317 ft | 338 kts | 69° |
| 2026-05-07 17:21 | 31.29254 | -132.07818 | 27318 ft | 338 kts | 69° |
| 2026-05-07 17:21 | 31.29944 | -132.05179 | 27318 ft | 338 kts | 69° |
| 2026-05-07 17:21 | 31.30631 | -132.02547 | 27318 ft | 338 kts | 69° |
| 2026-05-07 17:21 | 31.31317 | -131.99915 | 27318 ft | 338 kts | 70° |
| 2026-05-07 17:22 | 31.32003 | -131.97284 | 27325 ft | 338 kts | 70° |
| 2026-05-07 17:22 | 31.32689 | -131.94649 | 27322 ft | 339 kts | 70° |
| 2026-05-07 17:22 | 31.33374 | -131.92014 | 27321 ft | 339 kts | 70° |
| 2026-05-07 17:22 | 31.34049 | -131.89414 | 27321 ft | 339 kts | 70° |
| 2026-05-07 17:23 | 31.34742 | -131.86745 | 27320 ft | 339 kts | 70° |
| 2026-05-07 17:23 | 31.35425 | -131.84111 | 27320 ft | 339 kts | 70° |
| 2026-05-07 17:23 | 31.36108 | -131.81474 | 27320 ft | 339 kts | 70° |
| 2026-05-07 17:23 | 31.36791 | -131.78837 | 27321 ft | 339 kts | 70° |
| 2026-05-07 17:24 | 31.37473 | -131.76201 | 27323 ft | 339 kts | 70° |
| 2026-05-07 17:24 | 31.38154 | -131.73562 | 27320 ft | 339 kts | 70° |
| 2026-05-07 17:24 | 31.38826 | -131.70961 | 27320 ft | 339 kts | 70° |
| 2026-05-07 17:24 | 31.39506 | -131.68322 | 27320 ft | 339 kts | 70° |
| 2026-05-07 17:25 | 31.40187 | -131.65680 | 27323 ft | 339 kts | 70° |
| 2026-05-07 17:25 | 31.40866 | -131.63041 | 27321 ft | 339 kts | 70° |
| 2026-05-07 17:25 | 31.41545 | -131.60399 | 27320 ft | 339 kts | 70° |
| 2026-05-07 17:25 | 31.42224 | -131.57757 | 27320 ft | 339 kts | 70° |
| 2026-05-07 17:26 | 31.42902 | -131.55115 | 27326 ft | 339 kts | 70° |
| 2026-05-07 17:26 | 31.43580 | -131.52471 | 27320 ft | 339 kts | 70° |
| 2026-05-07 17:26 | 31.44257 | -131.49827 | 27319 ft | 339 kts | 70° |
| 2026-05-07 17:26 | 31.44935 | -131.47181 | 27320 ft | 339 kts | 70° |
| 2026-05-07 17:27 | 31.45611 | -131.44537 | 27319 ft | 339 kts | 70° |
| 2026-05-07 17:27 | 31.46287 | -131.41889 | 27321 ft | 339 kts | 70° |
| 2026-05-07 17:27 | 31.46963 | -131.39239 | 27320 ft | 339 kts | 70° |
| 2026-05-07 17:27 | 31.47637 | -131.36595 | 27320 ft | 339 kts | 70° |
| 2026-05-07 17:28 | 31.48311 | -131.33948 | 27326 ft | 339 kts | 70° |
| 2026-05-07 17:28 | 31.48985 | -131.31300 | 27322 ft | 339 kts | 70° |
| 2026-05-07 17:28 | 31.49658 | -131.28650 | 27320 ft | 339 kts | 70° |
| 2026-05-07 17:28 | 31.50331 | -131.26002 | 27320 ft | 339 kts | 70° |
| 2026-05-07 17:29 | 31.50776 | -131.24247 | 27317 ft | 339 kts | 71° |
| 2026-05-07 17:29 | 31.51447 | -131.21600 | 27322 ft | 339 kts | 71° |
| 2026-05-07 17:29 | 31.52119 | -131.18949 | 27321 ft | 339 kts | 71° |
| 2026-05-07 17:29 | 31.52791 | -131.16296 | 27320 ft | 339 kts | 71° |
| 2026-05-07 17:30 | 31.53460 | -131.13647 | 27321 ft | 339 kts | 71° |
| 2026-05-07 17:30 | 31.54348 | -131.10134 | 27321 ft | 339 kts | 71° |
| 2026-05-07 17:30 | 31.55017 | -131.07480 | 27323 ft | 339 kts | 71° |
| 2026-05-07 17:30 | 31.55469 | -131.05687 | 27320 ft | 339 kts | 71° |
| 2026-05-07 17:31 | 31.56138 | -131.03030 | 27327 ft | 340 kts | 71° |
| 2026-05-07 17:31 | 31.56807 | -131.00373 | 27320 ft | 340 kts | 71° |
| 2026-05-07 17:31 | 31.57475 | -130.97716 | 27320 ft | 340 kts | 71° |
| 2026-05-07 17:31 | 31.58134 | -130.95092 | 27320 ft | 340 kts | 71° |
| 2026-05-07 17:32 | 31.58800 | -130.92436 | 27320 ft | 340 kts | 71° |
| 2026-05-07 17:32 | 31.59466 | -130.89780 | 27326 ft | 340 kts | 71° |
| 2026-05-07 17:32 | 31.60132 | -130.87120 | 27321 ft | 340 kts | 71° |
| 2026-05-07 17:32 | 31.60798 | -130.84458 | 27321 ft | 340 kts | 71° |
| 2026-05-07 17:33 | 31.61462 | -130.81799 | 27319 ft | 340 kts | 71° |
| 2026-05-07 17:33 | 31.62125 | -130.79141 | 27314 ft | 340 kts | 71° |
| 2026-05-07 17:33 | 31.62790 | -130.76479 | 27321 ft | 340 kts | 71° |
| 2026-05-07 17:33 | 31.63454 | -130.73811 | 27316 ft | 340 kts | 71° |
| 2026-05-07 17:34 | 31.64116 | -130.71154 | 27319 ft | 340 kts | 71° |
| 2026-05-07 17:34 | 31.64778 | -130.68491 | 27319 ft | 340 kts | 71° |
| 2026-05-07 17:34 | 31.65439 | -130.65830 | 27321 ft | 340 kts | 71° |
| 2026-05-07 17:34 | 31.66100 | -130.63167 | 27319 ft | 340 kts | 71° |
| 2026-05-07 17:35 | 31.66761 | -130.60501 | 27320 ft | 340 kts | 71° |
| 2026-05-07 17:35 | 31.67420 | -130.57842 | 27320 ft | 340 kts | 71° |
| 2026-05-07 17:35 | 31.68079 | -130.55178 | 27318 ft | 340 kts | 71° |
| 2026-05-07 17:35 | 31.68738 | -130.52512 | 27318 ft | 340 kts | 71° |
| 2026-05-07 17:36 | 31.69397 | -130.49846 | 27320 ft | 340 kts | 71° |
| 2026-05-07 17:36 | 31.70054 | -130.47180 | 27324 ft | 340 kts | 71° |
| 2026-05-07 17:36 | 31.70711 | -130.44517 | 27322 ft | 340 kts | 71° |
| 2026-05-07 17:36 | 31.71360 | -130.41881 | 27318 ft | 340 kts | 71° |
| 2026-05-07 17:37 | 31.72016 | -130.39215 | 27322 ft | 340 kts | 71° |
| 2026-05-07 17:37 | 31.72672 | -130.36544 | 27319 ft | 340 kts | 71° |
| 2026-05-07 17:37 | 31.73327 | -130.33876 | 27316 ft | 340 kts | 71° |
| 2026-05-07 17:37 | 31.73982 | -130.31207 | 27318 ft | 340 kts | 71° |
| 2026-05-07 17:38 | 31.74637 | -130.28534 | 27315 ft | 340 kts | 71° |
| 2026-05-07 17:38 | 31.75290 | -130.25867 | 27315 ft | 340 kts | 71° |
| 2026-05-07 17:38 | 31.75943 | -130.23193 | 27315 ft | 340 kts | 71° |
| 2026-05-07 17:38 | 31.76596 | -130.20521 | 27319 ft | 340 kts | 71° |
| 2026-05-07 17:39 | 31.77249 | -130.17847 | 27317 ft | 340 kts | 71° |
| 2026-05-07 17:39 | 31.77901 | -130.15173 | 27318 ft | 340 kts | 71° |
| 2026-05-07 17:39 | 31.78552 | -130.12500 | 27315 ft | 340 kts | 71° |
| 2026-05-07 17:39 | 31.79203 | -130.09825 | 27321 ft | 340 kts | 71° |
| 2026-05-07 17:40 | 31.79852 | -130.07153 | 27321 ft | 340 kts | 71° |
| 2026-05-07 17:40 | 31.80502 | -130.04477 | 27322 ft | 340 kts | 71° |
| 2026-05-07 17:40 | 31.81152 | -130.01798 | 27319 ft | 340 kts | 71° |
| 2026-05-07 17:40 | 31.81800 | -129.99122 | 27315 ft | 340 kts | 71° |
| 2026-05-07 17:41 | 31.82448 | -129.96448 | 27312 ft | 340 kts | 71° |
| 2026-05-07 17:41 | 31.83096 | -129.93769 | 27322 ft | 340 kts | 71° |
| 2026-05-07 17:41 | 31.83741 | -129.91098 | 27320 ft | 340 kts | 71° |
| 2026-05-07 17:41 | 31.84387 | -129.88420 | 27324 ft | 340 kts | 71° |
| 2026-05-07 17:42 | 31.85032 | -129.85745 | 27319 ft | 340 kts | 71° |
| 2026-05-07 17:42 | 31.85678 | -129.83064 | 27318 ft | 340 kts | 71° |
| 2026-05-07 17:42 | 31.86322 | -129.80388 | 27314 ft | 340 kts | 71° |
| 2026-05-07 17:42 | 31.86966 | -129.77709 | 27320 ft | 340 kts | 71° |
| 2026-05-07 17:43 | 31.87609 | -129.75030 | 27330 ft | 340 kts | 71° |
| 2026-05-07 17:43 | 31.88251 | -129.72355 | 27315 ft | 340 kts | 71° |
| 2026-05-07 17:43 | 31.88892 | -129.69682 | 27324 ft | 340 kts | 71° |
| 2026-05-07 17:43 | 31.89533 | -129.67004 | 27317 ft | 340 kts | 71° |
| 2026-05-07 17:44 | 31.90173 | -129.64330 | 27325 ft | 340 kts | 71° |
| 2026-05-07 17:44 | 31.90812 | -129.61653 | 27314 ft | 340 kts | 71° |
| 2026-05-07 17:44 | 31.91443 | -129.59010 | 27321 ft | 340 kts | 71° |
| 2026-05-07 17:44 | 31.92082 | -129.56330 | 27319 ft | 340 kts | 71° |
| 2026-05-07 17:45 | 31.92721 | -129.53649 | 27329 ft | 340 kts | 71° |
| 2026-05-07 17:45 | 31.93358 | -129.50972 | 27317 ft | 340 kts | 71° |
| 2026-05-07 17:45 | 31.93993 | -129.48297 | 27316 ft | 339 kts | 71° |
| 2026-05-07 17:45 | 31.94628 | -129.45623 | 27311 ft | 340 kts | 71° |
| 2026-05-07 17:46 | 31.95263 | -129.42946 | 27313 ft | 340 kts | 71° |
| 2026-05-07 17:46 | 31.95898 | -129.40267 | 27311 ft | 340 kts | 71° |
| 2026-05-07 17:46 | 31.96532 | -129.37590 | 27311 ft | 340 kts | 71° |
| 2026-05-07 17:46 | 31.97166 | -129.34907 | 27318 ft | 340 kts | 71° |
| 2026-05-07 17:47 | 31.97800 | -129.32227 | 27322 ft | 340 kts | 71° |
| 2026-05-07 17:47 | 31.98432 | -129.29547 | 27312 ft | 340 kts | 71° |
| 2026-05-07 17:47 | 31.99063 | -129.26869 | 27308 ft | 339 kts | 71° |
| 2026-05-07 17:47 | 31.99694 | -129.24191 | 27314 ft | 339 kts | 71° |
| 2026-05-07 17:48 | 32.00325 | -129.21510 | 27323 ft | 339 kts | 71° |
| 2026-05-07 17:48 | 32.00955 | -129.18831 | 27311 ft | 339 kts | 71° |
| 2026-05-07 17:48 | 32.01584 | -129.16149 | 27317 ft | 339 kts | 71° |
| 2026-05-07 17:48 | 32.02211 | -129.13475 | 27324 ft | 339 kts | 71° |
| 2026-05-07 17:49 | 32.02839 | -129.10797 | 27316 ft | 339 kts | 71° |
| 2026-05-07 17:49 | 32.03466 | -129.08119 | 27312 ft | 339 kts | 71° |
| 2026-05-07 17:49 | 32.04091 | -129.05444 | 27313 ft | 338 kts | 71° |
| 2026-05-07 17:49 | 32.04716 | -129.02768 | 27315 ft | 339 kts | 71° |
| 2026-05-07 17:50 | 32.05341 | -129.00091 | 27308 ft | 339 kts | 71° |
| 2026-05-07 17:50 | 32.05963 | -128.97421 | 27313 ft | 339 kts | 71° |
| 2026-05-07 17:50 | 32.06587 | -128.94743 | 27310 ft | 339 kts | 71° |
| 2026-05-07 17:50 | 32.07201 | -128.92102 | 27309 ft | 339 kts | 71° |
| 2026-05-07 17:51 | 32.07823 | -128.89423 | 27304 ft | 339 kts | 71° |
| 2026-05-07 17:51 | 32.08444 | -128.86745 | 27310 ft | 338 kts | 72° |
| 2026-05-07 17:51 | 32.09064 | -128.84073 | 27313 ft | 338 kts | 72° |
| 2026-05-07 17:51 | 32.09683 | -128.81401 | 27314 ft | 338 kts | 72° |
| 2026-05-07 17:52 | 32.10302 | -128.78727 | 27311 ft | 338 kts | 72° |
| 2026-05-07 17:52 | 32.10919 | -128.76058 | 27310 ft | 338 kts | 72° |
| 2026-05-07 17:52 | 32.11536 | -128.73386 | 27304 ft | 338 kts | 72° |
| 2026-05-07 17:52 | 32.12153 | -128.70709 | 27305 ft | 338 kts | 72° |
| 2026-05-07 17:53 | 32.12770 | -128.68031 | 27307 ft | 338 kts | 72° |
| 2026-05-07 17:53 | 32.13386 | -128.65355 | 27315 ft | 338 kts | 72° |
| 2026-05-07 17:53 | 32.14000 | -128.62684 | 27309 ft | 338 kts | 72° |
| 2026-05-07 17:53 | 32.14615 | -128.60010 | 27306 ft | 337 kts | 72° |
| 2026-05-07 17:54 | 32.15228 | -128.57338 | 27306 ft | 337 kts | 72° |
| 2026-05-07 17:54 | 32.15838 | -128.54674 | 27307 ft | 337 kts | 72° |
| 2026-05-07 17:54 | 32.16451 | -128.51997 | 27308 ft | 337 kts | 72° |
| 2026-05-07 17:54 | 32.17062 | -128.49325 | 27308 ft | 337 kts | 72° |
| 2026-05-07 17:55 | 32.17673 | -128.46653 | 27308 ft | 338 kts | 72° |
| 2026-05-07 17:55 | 32.18283 | -128.43977 | 27304 ft | 338 kts | 72° |
| 2026-05-07 17:55 | 32.18894 | -128.41299 | 27304 ft | 338 kts | 72° |
| 2026-05-07 17:55 | 32.19502 | -128.38627 | 27306 ft | 338 kts | 72° |
| 2026-05-07 17:56 | 32.20112 | -128.35947 | 27300 ft | 338 kts | 72° |
| 2026-05-07 17:56 | 32.20721 | -128.33267 | 27301 ft | 337 kts | 72° |
| 2026-05-07 17:56 | 32.21328 | -128.30596 | 27301 ft | 337 kts | 72° |
| 2026-05-07 17:56 | 32.21935 | -128.27917 | 27305 ft | 337 kts | 72° |
| 2026-05-07 17:57 | 32.22534 | -128.25274 | 27301 ft | 337 kts | 72° |
| 2026-05-07 17:57 | 32.22943 | -128.23467 | 27303 ft | 338 kts | 72° |
| 2026-05-07 17:57 | 32.23745 | -128.19918 | 27301 ft | 338 kts | 72° |
| 2026-05-07 17:57 | 32.24351 | -128.17236 | 27307 ft | 337 kts | 72° |
| 2026-05-07 17:58 | 32.24953 | -128.14569 | 27302 ft | 336 kts | 72° |
| 2026-05-07 17:58 | 32.25553 | -128.11903 | 27304 ft | 336 kts | 72° |
| 2026-05-07 17:58 | 32.26144 | -128.09236 | 27313 ft | 336 kts | 72° |
| 2026-05-07 17:58 | 32.26674 | -128.06549 | 27339 ft | 336 kts | 75° |
| 2026-05-07 17:59 | 32.27078 | -128.03824 | 27342 ft | 338 kts | 79° |
| 2026-05-07 17:59 | 32.27294 | -128.01051 | 27314 ft | 341 kts | 84° |
| 2026-05-07 17:59 | 32.27324 | -127.98248 | 27288 ft | 342 kts | 87° |
| 2026-05-07 17:59 | 32.27374 | -127.95443 | 27308 ft | 341 kts | 84° |
| 2026-05-07 18:00 | 32.27519 | -127.92659 | 27376 ft | 338 kts | 82° |
| 2026-05-07 18:00 | 32.27737 | -127.89902 | 27432 ft | 336 kts | 81° |
| 2026-05-07 18:00 | 32.27994 | -127.87155 | 27432 ft | 336 kts | 79° |
| 2026-05-07 18:00 | 32.28313 | -127.84414 | 27398 ft | 337 kts | 78° |
| 2026-05-07 18:01 | 32.28614 | -127.81659 | 27395 ft | 338 kts | 80° |
| 2026-05-07 18:01 | 32.28810 | -127.78895 | 27438 ft | 338 kts | 83° |
| 2026-05-07 18:01 | 32.28822 | -127.76114 | 27474 ft | 339 kts | 89° |
| 2026-05-07 18:01 | 32.28595 | -127.73420 | 27218 ft | 319 kts | 94° |
| 2026-05-07 18:02 | 32.28003 | -127.68238 | 25514 ft | 311 kts | 95° |
| 2026-05-07 18:02 | 32.27679 | -127.65849 | 25436 ft | 283 kts | 96° |
| 2026-05-07 18:02 | 32.27310 | -127.63536 | 24371 ft | 296 kts | 98° |
| 2026-05-07 18:03 | 32.26872 | -127.61151 | 23553 ft | 297 kts | 101° |
| 2026-05-07 18:03 | 32.26393 | -127.58787 | 22690 ft | 295 kts | 102° |
| 2026-05-07 18:03 | 32.25853 | -127.56463 | 21941 ft | 290 kts | 104° |
| 2026-05-07 18:03 | 32.25276 | -127.54202 | 21242 ft | 285 kts | 106° |
| 2026-05-07 18:04 | 32.24633 | -127.51999 | 20500 ft | 283 kts | 109° |
| 2026-05-07 18:04 | 32.23930 | -127.49838 | 19733 ft | 282 kts | 110° |
| 2026-05-07 18:04 | 32.23202 | -127.47694 | 19020 ft | 280 kts | 112° |
| 2026-05-07 18:04 | 32.22485 | -127.45580 | 18323 ft | 275 kts | 103° |
| 2026-05-07 18:05 | 32.22235 | -127.43323 | 17252 ft | 281 kts | 95° |
| 2026-05-07 18:05 | 32.22027 | -127.41069 | 16733 ft | 268 kts | 96° |
| 2026-05-07 18:05 | 32.21812 | -127.38997 | 14484 ft | 227 kts | 96° |
| 2026-05-07 18:05 | 32.21373 | -127.36461 | 10802 ft | 360 kts | 103° |
| 2026-05-07 18:06 | 32.20752 | -127.33722 | 9225 ft | 337 kts | 105° |
| 2026-05-07 18:06 | 32.20088 | -127.31124 | 7565 ft | 322 kts | 107° |
| 2026-05-07 18:06 | 32.19364 | -127.28679 | 4922 ft | 315 kts | 109° |
| 2026-05-07 18:06 | 32.18604 | -127.26055 | 1912 ft | 349 kts | 104° |
| 2026-05-07 18:07 | 32.18034 | -127.23545 | 1583 ft | 283 kts | 103° |
| 2026-05-07 18:07 | 32.17542 | -127.21521 | 1593 ft | 235 kts | 105° |
| 2026-05-07 18:07 | 32.17081 | -127.19811 | 1432 ft | 208 kts | 106° |
| 2026-05-07 18:07 | 32.16595 | -127.18230 | 970 ft | 202 kts | 109° |
| 2026-05-07 18:08 | 32.16081 | -127.16706 | 473 ft | 199 kts | 110° |
| 2026-05-07 18:08 | 32.15532 | -127.15271 | 240 ft | 182 kts | 114° |
| 2026-05-07 18:08 | 32.14971 | -127.14003 | 88 ft | 166 kts | 117° |
| 2026-05-07 18:08 | 32.14420 | -127.12880 | 22 ft | 149 kts | 118° |
| 2026-05-07 18:09 | 32.13907 | -127.11917 | 14 ft | 133 kts | 120° |
| 2026-05-07 18:09 | 32.13472 | -127.11160 | -2 ft | 67 kts | 119° |
| 2026-05-07 18:09 | 32.13377 | -127.11085 | -2 ft | 7 kts | 119° |
| 2026-05-07 18:09 | 32.13337 | -127.11111 | -2 ft | 7 kts | 119° |
| 2026-05-07 18:10 | 32.13293 | -127.11139 | -2 ft | 7 kts | 119° |